<?xml version='1.0' encoding='UTF-8'?><gpx version="1.1" creator="JPX - https://github.com/jenetics/jpx" xmlns="http://www.topografix.com/GPX/1/1"><trk><trkseg><trkpt lat="44.9738872" lon="7.5493892"><ele>253.0</ele><time>2026-04-23T14:46:48.642Z</time></trkpt><trkpt lat="44.9738147" lon="7.549365"><ele>253.0</ele><time>2026-04-23T14:46:50.642Z</time></trkpt><trkpt lat="44.9737218" lon="7.5492926"><ele>253.0</ele><time>2026-04-23T14:46:52.641Z</time></trkpt><trkpt lat="44.9736081" lon="7.5491906"><ele>253.0</ele><time>2026-04-23T14:46:54.641Z</time></trkpt><trkpt lat="44.9735368" lon="7.5491274"><ele>253.0</ele><time>2026-04-23T14:46:55.641Z</time></trkpt><trkpt lat="44.973459" lon="7.5490626"><ele>253.0</ele><time>2026-04-23T14:46:56.64Z</time></trkpt><trkpt lat="44.9733815" lon="7.5489862"><ele>253.0</ele><time>2026-04-23T14:46:57.641Z</time></trkpt><trkpt lat="44.9733013" lon="7.5488945"><ele>253.0</ele><time>2026-04-23T14:46:58.642Z</time></trkpt><trkpt lat="44.9732279" lon="7.5487967"><ele>253.0</ele><time>2026-04-23T14:46:59.642Z</time></trkpt><trkpt lat="44.9731685" lon="7.5487101"><ele>253.0</ele><time>2026-04-23T14:47:00.641Z</time></trkpt><trkpt lat="44.9731182" lon="7.5486332"><ele>253.16666666666666</ele><time>2026-04-23T14:47:01.642Z</time></trkpt><trkpt lat="44.9730727" lon="7.5485551"><ele>253.33333333333331</ele><time>2026-04-23T14:47:02.642Z</time></trkpt><trkpt lat="44.9730253" lon="7.5484788"><ele>253.5</ele><time>2026-04-23T14:47:03.642Z</time></trkpt><trkpt lat="44.9729722" lon="7.5483915"><ele>253.66666666666669</ele><time>2026-04-23T14:47:04.641Z</time></trkpt><trkpt lat="44.9729066" lon="7.5482824"><ele>253.83333333333334</ele><time>2026-04-23T14:47:05.642Z</time></trkpt><trkpt lat="44.9728318" lon="7.5481493"><ele>254.0</ele><time>2026-04-23T14:47:06.64Z</time></trkpt><trkpt lat="44.9727653" lon="7.5479971"><ele>254.0</ele><time>2026-04-23T14:47:07.641Z</time></trkpt><trkpt lat="44.9726973" lon="7.5478254"><ele>254.0</ele><time>2026-04-23T14:47:08.64Z</time></trkpt><trkpt lat="44.9726285" lon="7.5476389"><ele>254.0</ele><time>2026-04-23T14:47:09.641Z</time></trkpt><trkpt lat="44.9725502" lon="7.5474528"><ele>254.0</ele><time>2026-04-23T14:47:10.643Z</time></trkpt><trkpt lat="44.9724631" lon="7.5472674"><ele>254.0</ele><time>2026-04-23T14:47:11.642Z</time></trkpt><trkpt lat="44.9723742" lon="7.5470775"><ele>254.0</ele><time>2026-04-23T14:47:12.641Z</time></trkpt><trkpt lat="44.9722786" lon="7.5468903"><ele>254.0</ele><time>2026-04-23T14:47:13.641Z</time></trkpt><trkpt lat="44.9721803" lon="7.5466998"><ele>254.0</ele><time>2026-04-23T14:47:14.642Z</time></trkpt><trkpt lat="44.9720778" lon="7.546511"><ele>254.0</ele><time>2026-04-23T14:47:15.64Z</time></trkpt><trkpt lat="44.9719738" lon="7.5463215"><ele>254.0</ele><time>2026-04-23T14:47:16.642Z</time></trkpt><trkpt lat="44.9718679" lon="7.5461279"><ele>254.33333333333334</ele><time>2026-04-23T14:47:17.641Z</time></trkpt><trkpt lat="44.971763" lon="7.5459331"><ele>254.66666666666669</ele><time>2026-04-23T14:47:18.641Z</time></trkpt><trkpt lat="44.9716546" lon="7.5457372"><ele>255.0</ele><time>2026-04-23T14:47:19.641Z</time></trkpt><trkpt lat="44.971545" lon="7.5455351"><ele>254.66666666666669</ele><time>2026-04-23T14:47:20.64Z</time></trkpt><trkpt lat="44.9714349" lon="7.5453341"><ele>254.33333333333334</ele><time>2026-04-23T14:47:21.641Z</time></trkpt><trkpt lat="44.9713272" lon="7.5451284"><ele>254.0</ele><time>2026-04-23T14:47:22.64Z</time></trkpt><trkpt lat="44.971222" lon="7.5449221"><ele>254.0</ele><time>2026-04-23T14:47:23.641Z</time></trkpt><trkpt lat="44.9711199" lon="7.5447196"><ele>254.0</ele><time>2026-04-23T14:47:24.641Z</time></trkpt><trkpt lat="44.9710212" lon="7.5445162"><ele>254.0</ele><time>2026-04-23T14:47:25.643Z</time></trkpt><trkpt lat="44.9709296" lon="7.5443158"><ele>253.33333333333334</ele><time>2026-04-23T14:47:26.64Z</time></trkpt><trkpt lat="44.9708532" lon="7.5441155"><ele>252.66666666666669</ele><time>2026-04-23T14:47:27.642Z</time></trkpt><trkpt lat="44.9707887" lon="7.5439136"><ele>252.0</ele><time>2026-04-23T14:47:28.643Z</time></trkpt><trkpt lat="44.9707298" lon="7.5437233"><ele>251.75</ele><time>2026-04-23T14:47:29.64Z</time></trkpt><trkpt lat="44.9706738" lon="7.5435346"><ele>251.5</ele><time>2026-04-23T14:47:30.643Z</time></trkpt><trkpt lat="44.9706258" lon="7.5433593"><ele>251.25</ele><time>2026-04-23T14:47:31.641Z</time></trkpt><trkpt lat="44.9705784" lon="7.5431976"><ele>251.0</ele><time>2026-04-23T14:47:32.641Z</time></trkpt><trkpt lat="44.9705267" lon="7.5430503"><ele>251.0</ele><time>2026-04-23T14:47:33.641Z</time></trkpt><trkpt lat="44.9704628" lon="7.5429103"><ele>251.0</ele><time>2026-04-23T14:47:34.642Z</time></trkpt><trkpt lat="44.9703948" lon="7.5427785"><ele>251.0</ele><time>2026-04-23T14:47:35.642Z</time></trkpt><trkpt lat="44.970317" lon="7.5426348"><ele>251.0</ele><time>2026-04-23T14:47:36.64Z</time></trkpt><trkpt lat="44.97023" lon="7.5424856"><ele>251.5</ele><time>2026-04-23T14:47:37.64Z</time></trkpt><trkpt lat="44.9701355" lon="7.5423386"><ele>252.0</ele><time>2026-04-23T14:47:38.642Z</time></trkpt><trkpt lat="44.9700442" lon="7.5422016"><ele>252.5</ele><time>2026-04-23T14:47:39.64Z</time></trkpt><trkpt lat="44.9699585" lon="7.5420682"><ele>253.0</ele><time>2026-04-23T14:47:40.641Z</time></trkpt><trkpt lat="44.9698761" lon="7.541948"><ele>252.99999999999997</ele><time>2026-04-23T14:47:41.64Z</time></trkpt><trkpt lat="44.9698004" lon="7.5418457"><ele>253.0</ele><time>2026-04-23T14:47:42.642Z</time></trkpt><trkpt lat="44.9697333" lon="7.5417575"><ele>253.0</ele><time>2026-04-23T14:47:43.641Z</time></trkpt><trkpt lat="44.9696699" lon="7.5416815"><ele>253.0</ele><time>2026-04-23T14:47:44.641Z</time></trkpt><trkpt lat="44.9696156" lon="7.5416031"><ele>252.99999999999997</ele><time>2026-04-23T14:47:45.641Z</time></trkpt><trkpt lat="44.9695591" lon="7.5415294"><ele>253.0</ele><time>2026-04-23T14:47:46.641Z</time></trkpt><trkpt lat="44.9695139" lon="7.5414512"><ele>252.99999999999997</ele><time>2026-04-23T14:47:47.641Z</time></trkpt><trkpt lat="44.9694701" lon="7.5413651"><ele>253.0</ele><time>2026-04-23T14:47:48.641Z</time></trkpt><trkpt lat="44.9694286" lon="7.5412777"><ele>253.0</ele><time>2026-04-23T14:47:49.641Z</time></trkpt><trkpt lat="44.9693759" lon="7.5411849"><ele>253.0</ele><time>2026-04-23T14:47:50.641Z</time></trkpt><trkpt lat="44.9693253" lon="7.541097"><ele>252.99999999999997</ele><time>2026-04-23T14:47:51.641Z</time></trkpt><trkpt lat="44.9692788" lon="7.54101"><ele>253.0</ele><time>2026-04-23T14:47:52.641Z</time></trkpt><trkpt lat="44.9692285" lon="7.5409148"><ele>252.66666666666666</ele><time>2026-04-23T14:47:53.643Z</time></trkpt><trkpt lat="44.9691781" lon="7.5408153"><ele>252.33333333333331</ele><time>2026-04-23T14:47:54.641Z</time></trkpt><trkpt lat="44.9691273" lon="7.5407242"><ele>252.0</ele><time>2026-04-23T14:47:55.64Z</time></trkpt><trkpt lat="44.9690778" lon="7.5406379"><ele>251.66666666666669</ele><time>2026-04-23T14:47:56.64Z</time></trkpt><trkpt lat="44.9690305" lon="7.5405494"><ele>251.33333333333334</ele><time>2026-04-23T14:47:57.64Z</time></trkpt><trkpt lat="44.9689715" lon="7.5404676"><ele>251.0</ele><time>2026-04-23T14:47:58.64Z</time></trkpt><trkpt lat="44.9689117" lon="7.5403833"><ele>251.20000000000002</ele><time>2026-04-23T14:47:59.642Z</time></trkpt><trkpt lat="44.968845" lon="7.5402777"><ele>251.40000000000003</ele><time>2026-04-23T14:48:00.641Z</time></trkpt><trkpt lat="44.9687848" lon="7.540177"><ele>251.6</ele><time>2026-04-23T14:48:01.64Z</time></trkpt><trkpt lat="44.9687232" lon="7.540065"><ele>251.8</ele><time>2026-04-23T14:48:02.641Z</time></trkpt><trkpt lat="44.9686603" lon="7.5399469"><ele>252.0</ele><time>2026-04-23T14:48:03.641Z</time></trkpt><trkpt lat="44.968581" lon="7.5398255"><ele>252.0</ele><time>2026-04-23T14:48:04.64Z</time></trkpt><trkpt lat="44.9685073" lon="7.539714"><ele>252.0</ele><time>2026-04-23T14:48:05.64Z</time></trkpt><trkpt lat="44.9684361" lon="7.5395998"><ele>252.0</ele><time>2026-04-23T14:48:06.64Z</time></trkpt><trkpt lat="44.9683608" lon="7.5394702"><ele>252.0</ele><time>2026-04-23T14:48:07.641Z</time></trkpt><trkpt lat="44.9682868" lon="7.5393353"><ele>252.0</ele><time>2026-04-23T14:48:08.641Z</time></trkpt><trkpt lat="44.9682045" lon="7.5391976"><ele>252.0</ele><time>2026-04-23T14:48:09.641Z</time></trkpt><trkpt lat="44.9681195" lon="7.5390583"><ele>252.0</ele><time>2026-04-23T14:48:10.64Z</time></trkpt><trkpt lat="44.9680332" lon="7.5389247"><ele>252.0</ele><time>2026-04-23T14:48:11.641Z</time></trkpt><trkpt lat="44.9679465" lon="7.5388021"><ele>252.25</ele><time>2026-04-23T14:48:12.64Z</time></trkpt><trkpt lat="44.967864" lon="7.5386754"><ele>252.5</ele><time>2026-04-23T14:48:13.64Z</time></trkpt><trkpt lat="44.9677732" lon="7.5385459"><ele>252.75</ele><time>2026-04-23T14:48:14.641Z</time></trkpt><trkpt lat="44.9676875" lon="7.5384157"><ele>253.0</ele><time>2026-04-23T14:48:15.641Z</time></trkpt><trkpt lat="44.9676079" lon="7.5382997"><ele>253.0</ele><time>2026-04-23T14:48:16.64Z</time></trkpt><trkpt lat="44.9675281" lon="7.5381858"><ele>253.0</ele><time>2026-04-23T14:48:17.641Z</time></trkpt><trkpt lat="44.9674497" lon="7.5380779"><ele>253.0</ele><time>2026-04-23T14:48:18.642Z</time></trkpt><trkpt lat="44.9673737" lon="7.5379721"><ele>253.0</ele><time>2026-04-23T14:48:19.641Z</time></trkpt><trkpt lat="44.9672953" lon="7.537867"><ele>253.0</ele><time>2026-04-23T14:48:20.641Z</time></trkpt><trkpt lat="44.9672267" lon="7.5377679"><ele>252.60000000000002</ele><time>2026-04-23T14:48:21.641Z</time></trkpt><trkpt lat="44.9671579" lon="7.5376678"><ele>252.20000000000002</ele><time>2026-04-23T14:48:22.641Z</time></trkpt><trkpt lat="44.9670919" lon="7.5375679"><ele>251.8</ele><time>2026-04-23T14:48:23.641Z</time></trkpt><trkpt lat="44.9670214" lon="7.5374677"><ele>251.4</ele><time>2026-04-23T14:48:24.641Z</time></trkpt><trkpt lat="44.9669416" lon="7.5373614"><ele>251.0</ele><time>2026-04-23T14:48:25.642Z</time></trkpt><trkpt lat="44.9668496" lon="7.537253"><ele>251.0</ele><time>2026-04-23T14:48:26.641Z</time></trkpt><trkpt lat="44.9667638" lon="7.5371476"><ele>251.00000000000003</ele><time>2026-04-23T14:48:27.641Z</time></trkpt><trkpt lat="44.9666842" lon="7.537052"><ele>251.00000000000003</ele><time>2026-04-23T14:48:28.641Z</time></trkpt><trkpt lat="44.9665987" lon="7.5369499"><ele>251.0</ele><time>2026-04-23T14:48:29.64Z</time></trkpt><trkpt lat="44.9665103" lon="7.536852"><ele>251.0</ele><time>2026-04-23T14:48:30.641Z</time></trkpt><trkpt lat="44.9664166" lon="7.5367464"><ele>251.5</ele><time>2026-04-23T14:48:31.64Z</time></trkpt><trkpt lat="44.9663165" lon="7.536633"><ele>252.0</ele><time>2026-04-23T14:48:32.64Z</time></trkpt><trkpt lat="44.9662204" lon="7.536527"><ele>252.5</ele><time>2026-04-23T14:48:33.64Z</time></trkpt><trkpt lat="44.9661209" lon="7.5364143"><ele>253.0</ele><time>2026-04-23T14:48:34.642Z</time></trkpt><trkpt lat="44.9660182" lon="7.536306"><ele>252.75</ele><time>2026-04-23T14:48:35.64Z</time></trkpt><trkpt lat="44.9659146" lon="7.5361892"><ele>252.5</ele><time>2026-04-23T14:48:36.64Z</time></trkpt><trkpt lat="44.9658103" lon="7.5360722"><ele>252.25</ele><time>2026-04-23T14:48:37.642Z</time></trkpt><trkpt lat="44.9657122" lon="7.5359751"><ele>252.0</ele><time>2026-04-23T14:48:38.641Z</time></trkpt><trkpt lat="44.96561" lon="7.5358737"><ele>251.75</ele><time>2026-04-23T14:48:39.641Z</time></trkpt><trkpt lat="44.9655006" lon="7.5357527"><ele>251.5</ele><time>2026-04-23T14:48:40.642Z</time></trkpt><trkpt lat="44.9654025" lon="7.5356472"><ele>251.25</ele><time>2026-04-23T14:48:41.642Z</time></trkpt><trkpt lat="44.9652939" lon="7.5355273"><ele>251.0</ele><time>2026-04-23T14:48:42.642Z</time></trkpt><trkpt lat="44.9651864" lon="7.5354076"><ele>251.25</ele><time>2026-04-23T14:48:43.641Z</time></trkpt><trkpt lat="44.9650899" lon="7.5352953"><ele>251.5</ele><time>2026-04-23T14:48:44.64Z</time></trkpt><trkpt lat="44.9649859" lon="7.5351895"><ele>251.75</ele><time>2026-04-23T14:48:45.641Z</time></trkpt><trkpt lat="44.9648785" lon="7.5350727"><ele>252.0</ele><time>2026-04-23T14:48:46.641Z</time></trkpt><trkpt lat="44.9647727" lon="7.5349478"><ele>252.0</ele><time>2026-04-23T14:48:47.641Z</time></trkpt><trkpt lat="44.9646721" lon="7.5348286"><ele>252.0</ele><time>2026-04-23T14:48:48.641Z</time></trkpt><trkpt lat="44.964573" lon="7.5347142"><ele>252.0</ele><time>2026-04-23T14:48:49.643Z</time></trkpt><trkpt lat="44.964476" lon="7.5346081"><ele>252.0</ele><time>2026-04-23T14:48:50.643Z</time></trkpt><trkpt lat="44.964381" lon="7.5345001"><ele>252.0</ele><time>2026-04-23T14:48:51.64Z</time></trkpt><trkpt lat="44.9642873" lon="7.5343908"><ele>252.0</ele><time>2026-04-23T14:48:52.641Z</time></trkpt><trkpt lat="44.9642031" lon="7.5342888"><ele>252.0</ele><time>2026-04-23T14:48:53.641Z</time></trkpt><trkpt lat="44.9641322" lon="7.5342074"><ele>252.0</ele><time>2026-04-23T14:48:54.64Z</time></trkpt><trkpt lat="44.964065" lon="7.5341312"><ele>252.0</ele><time>2026-04-23T14:48:55.64Z</time></trkpt><trkpt lat="44.9640056" lon="7.5340604"><ele>252.0</ele><time>2026-04-23T14:48:56.641Z</time></trkpt><trkpt lat="44.9639623" lon="7.5339313"><ele>252.0</ele><time>2026-04-23T14:48:58.641Z</time></trkpt><trkpt lat="44.9640036" lon="7.5337532"><ele>252.0</ele><time>2026-04-23T14:49:00.64Z</time></trkpt><trkpt lat="44.9640653" lon="7.5336256"><ele>252.0</ele><time>2026-04-23T14:49:01.641Z</time></trkpt><trkpt lat="44.9641368" lon="7.5334949"><ele>252.0</ele><time>2026-04-23T14:49:02.642Z</time></trkpt><trkpt lat="44.9642145" lon="7.5333685"><ele>252.0</ele><time>2026-04-23T14:49:03.641Z</time></trkpt><trkpt lat="44.9642872" lon="7.53323"><ele>252.0</ele><time>2026-04-23T14:49:04.641Z</time></trkpt><trkpt lat="44.9643732" lon="7.5330671"><ele>252.0</ele><time>2026-04-23T14:49:05.642Z</time></trkpt><trkpt lat="44.9644513" lon="7.5329247"><ele>252.0</ele><time>2026-04-23T14:49:06.641Z</time></trkpt><trkpt lat="44.9645195" lon="7.5328034"><ele>252.0</ele><time>2026-04-23T14:49:07.641Z</time></trkpt><trkpt lat="44.9645725" lon="7.532691"><ele>252.0</ele><time>2026-04-23T14:49:08.642Z</time></trkpt><trkpt lat="44.964605" lon="7.5325942"><ele>252.0</ele><time>2026-04-23T14:49:09.641Z</time></trkpt><trkpt lat="44.964617" lon="7.5325004"><ele>252.0</ele><time>2026-04-23T14:49:10.64Z</time></trkpt><trkpt lat="44.9645651" lon="7.5323158"><ele>252.0</ele><time>2026-04-23T14:49:12.64Z</time></trkpt><trkpt lat="44.964509" lon="7.5322386"><ele>252.0</ele><time>2026-04-23T14:49:13.64Z</time></trkpt><trkpt lat="44.96445" lon="7.5321487"><ele>252.0</ele><time>2026-04-23T14:49:14.64Z</time></trkpt><trkpt lat="44.9643968" lon="7.5320547"><ele>252.0</ele><time>2026-04-23T14:49:15.642Z</time></trkpt><trkpt lat="44.9643485" lon="7.531937"><ele>252.0</ele><time>2026-04-23T14:49:16.643Z</time></trkpt><trkpt lat="44.9643059" lon="7.5317883"><ele>251.8</ele><time>2026-04-23T14:49:17.641Z</time></trkpt><trkpt lat="44.9642658" lon="7.5316205"><ele>251.6</ele><time>2026-04-23T14:49:18.641Z</time></trkpt><trkpt lat="44.9642331" lon="7.5314695"><ele>251.40000000000003</ele><time>2026-04-23T14:49:19.64Z</time></trkpt><trkpt lat="44.9642033" lon="7.5313399"><ele>251.20000000000002</ele><time>2026-04-23T14:49:20.64Z</time></trkpt><trkpt lat="44.9641787" lon="7.5312248"><ele>251.0</ele><time>2026-04-23T14:49:21.641Z</time></trkpt><trkpt lat="44.9641594" lon="7.5311245"><ele>250.83333333333334</ele><time>2026-04-23T14:49:22.641Z</time></trkpt><trkpt lat="44.964149" lon="7.5310335"><ele>250.66666666666669</ele><time>2026-04-23T14:49:23.642Z</time></trkpt><trkpt lat="44.9641488" lon="7.5309415"><ele>250.5</ele><time>2026-04-23T14:49:24.642Z</time></trkpt><trkpt lat="44.9641572" lon="7.5308351"><ele>250.33333333333331</ele><time>2026-04-23T14:49:25.641Z</time></trkpt><trkpt lat="44.9641819" lon="7.5306851"><ele>250.16666666666666</ele><time>2026-04-23T14:49:26.641Z</time></trkpt><trkpt lat="44.9642027" lon="7.5305521"><ele>250.0</ele><time>2026-04-23T14:49:27.641Z</time></trkpt><trkpt lat="44.9642293" lon="7.5304181"><ele>250.16666666666666</ele><time>2026-04-23T14:49:28.641Z</time></trkpt><trkpt lat="44.964247" lon="7.5302966"><ele>250.33333333333331</ele><time>2026-04-23T14:49:29.641Z</time></trkpt><trkpt lat="44.9642614" lon="7.53018"><ele>250.5</ele><time>2026-04-23T14:49:30.641Z</time></trkpt><trkpt lat="44.9642701" lon="7.5300531"><ele>250.66666666666669</ele><time>2026-04-23T14:49:31.641Z</time></trkpt><trkpt lat="44.9642791" lon="7.5299312"><ele>250.83333333333334</ele><time>2026-04-23T14:49:32.641Z</time></trkpt><trkpt lat="44.9642805" lon="7.5298123"><ele>251.0</ele><time>2026-04-23T14:49:33.64Z</time></trkpt><trkpt lat="44.9642791" lon="7.5296966"><ele>251.00000000000003</ele><time>2026-04-23T14:49:34.64Z</time></trkpt><trkpt lat="44.9642733" lon="7.5295816"><ele>251.0</ele><time>2026-04-23T14:49:35.641Z</time></trkpt><trkpt lat="44.964256" lon="7.5294667"><ele>251.0</ele><time>2026-04-23T14:49:36.641Z</time></trkpt><trkpt lat="44.9642205" lon="7.5293583"><ele>251.0</ele><time>2026-04-23T14:49:37.64Z</time></trkpt><trkpt lat="44.9641696" lon="7.5292632"><ele>251.00000000000003</ele><time>2026-04-23T14:49:38.642Z</time></trkpt><trkpt lat="44.9641191" lon="7.5291788"><ele>251.0</ele><time>2026-04-23T14:49:39.64Z</time></trkpt><trkpt lat="44.9640707" lon="7.5290992"><ele>251.00000000000003</ele><time>2026-04-23T14:49:40.64Z</time></trkpt><trkpt lat="44.9640299" lon="7.5290197"><ele>251.0</ele><time>2026-04-23T14:49:41.64Z</time></trkpt><trkpt lat="44.9639684" lon="7.5289118"><ele>251.0</ele><time>2026-04-23T14:49:43.64Z</time></trkpt><trkpt lat="44.963915" lon="7.5288226"><ele>251.0</ele><time>2026-04-23T14:49:45.642Z</time></trkpt><trkpt lat="44.9638747" lon="7.5287513"><ele>251.00000000000003</ele><time>2026-04-23T14:49:47.64Z</time></trkpt><trkpt lat="44.963812" lon="7.5286557"><ele>251.0</ele><time>2026-04-23T14:49:59.64Z</time></trkpt><trkpt lat="44.9637564" lon="7.5285775"><ele>251.00000000000003</ele><time>2026-04-23T14:50:01.641Z</time></trkpt><trkpt lat="44.9636988" lon="7.5285142"><ele>251.0</ele><time>2026-04-23T14:50:03.642Z</time></trkpt><trkpt lat="44.9636389" lon="7.5284517"><ele>251.0</ele><time>2026-04-23T14:50:05.64Z</time></trkpt><trkpt lat="44.963571" lon="7.5283884"><ele>251.0</ele><time>2026-04-23T14:50:07.642Z</time></trkpt><trkpt lat="44.9634828" lon="7.5282831"><ele>251.00000000000003</ele><time>2026-04-23T14:50:09.642Z</time></trkpt><trkpt lat="44.9634106" lon="7.5282144"><ele>251.0</ele><time>2026-04-23T14:50:10.64Z</time></trkpt><trkpt lat="44.9633514" lon="7.5281535"><ele>251.0</ele><time>2026-04-23T14:50:11.642Z</time></trkpt><trkpt lat="44.9632525" lon="7.5280582"><ele>251.00000000000003</ele><time>2026-04-23T14:50:13.641Z</time></trkpt><trkpt lat="44.9631976" lon="7.5280036"><ele>251.00000000000003</ele><time>2026-04-23T14:50:14.64Z</time></trkpt><trkpt lat="44.9630984" lon="7.5279149"><ele>251.0</ele><time>2026-04-23T14:50:16.642Z</time></trkpt><trkpt lat="44.9629862" lon="7.5278247"><ele>251.0</ele><time>2026-04-23T14:50:18.641Z</time></trkpt><trkpt lat="44.962934" lon="7.5277745"><ele>251.16666666666669</ele><time>2026-04-23T14:50:19.641Z</time></trkpt><trkpt lat="44.9628844" lon="7.5277192"><ele>251.33333333333334</ele><time>2026-04-23T14:50:20.641Z</time></trkpt><trkpt lat="44.9627738" lon="7.527608"><ele>251.5</ele><time>2026-04-23T14:50:22.642Z</time></trkpt><trkpt lat="44.9627142" lon="7.5275428"><ele>251.66666666666669</ele><time>2026-04-23T14:50:23.64Z</time></trkpt><trkpt lat="44.9626468" lon="7.5274687"><ele>251.83333333333334</ele><time>2026-04-23T14:50:24.642Z</time></trkpt><trkpt lat="44.9625828" lon="7.5274026"><ele>252.0</ele><time>2026-04-23T14:50:25.64Z</time></trkpt><trkpt lat="44.9625117" lon="7.5273389"><ele>251.8</ele><time>2026-04-23T14:50:26.641Z</time></trkpt><trkpt lat="44.9624362" lon="7.527267"><ele>251.6</ele><time>2026-04-23T14:50:27.641Z</time></trkpt><trkpt lat="44.9623558" lon="7.5271834"><ele>251.40000000000003</ele><time>2026-04-23T14:50:28.641Z</time></trkpt><trkpt lat="44.9622703" lon="7.5270917"><ele>251.20000000000002</ele><time>2026-04-23T14:50:29.641Z</time></trkpt><trkpt lat="44.9621707" lon="7.5269859"><ele>251.0</ele><time>2026-04-23T14:50:30.641Z</time></trkpt><trkpt lat="44.9620481" lon="7.5268616"><ele>251.0</ele><time>2026-04-23T14:50:31.64Z</time></trkpt><trkpt lat="44.9619155" lon="7.5267329"><ele>251.0</ele><time>2026-04-23T14:50:32.64Z</time></trkpt><trkpt lat="44.9617694" lon="7.5266041"><ele>251.0</ele><time>2026-04-23T14:50:33.641Z</time></trkpt><trkpt lat="44.9616314" lon="7.5264901"><ele>251.0</ele><time>2026-04-23T14:50:34.641Z</time></trkpt><trkpt lat="44.9615051" lon="7.5263843"><ele>251.0</ele><time>2026-04-23T14:50:35.639Z</time></trkpt><trkpt lat="44.9613876" lon="7.5262821"><ele>251.0</ele><time>2026-04-23T14:50:36.641Z</time></trkpt><trkpt lat="44.9612655" lon="7.5261764"><ele>251.0</ele><time>2026-04-23T14:50:37.641Z</time></trkpt><trkpt lat="44.961143" lon="7.5260697"><ele>251.0</ele><time>2026-04-23T14:50:38.641Z</time></trkpt><trkpt lat="44.9610181" lon="7.5259486"><ele>251.0</ele><time>2026-04-23T14:50:39.641Z</time></trkpt><trkpt lat="44.9608949" lon="7.5258288"><ele>251.0</ele><time>2026-04-23T14:50:40.641Z</time></trkpt><trkpt lat="44.960788" lon="7.5257194"><ele>251.0</ele><time>2026-04-23T14:50:41.641Z</time></trkpt><trkpt lat="44.9606799" lon="7.5255891"><ele>251.0</ele><time>2026-04-23T14:50:42.639Z</time></trkpt><trkpt lat="44.9605717" lon="7.5254626"><ele>251.0</ele><time>2026-04-23T14:50:43.641Z</time></trkpt><trkpt lat="44.9604665" lon="7.525342"><ele>251.0</ele><time>2026-04-23T14:50:44.641Z</time></trkpt><trkpt lat="44.9603631" lon="7.525241"><ele>251.0</ele><time>2026-04-23T14:50:45.642Z</time></trkpt><trkpt lat="44.9602555" lon="7.5251515"><ele>251.25</ele><time>2026-04-23T14:50:46.64Z</time></trkpt><trkpt lat="44.9601215" lon="7.5250633"><ele>251.5</ele><time>2026-04-23T14:50:47.641Z</time></trkpt><trkpt lat="44.9599925" lon="7.5249937"><ele>251.75</ele><time>2026-04-23T14:50:48.641Z</time></trkpt><trkpt lat="44.9598744" lon="7.5249325"><ele>252.0</ele><time>2026-04-23T14:50:49.641Z</time></trkpt><trkpt lat="44.9597644" lon="7.5248746"><ele>251.8</ele><time>2026-04-23T14:50:50.642Z</time></trkpt><trkpt lat="44.9596581" lon="7.5248195"><ele>251.6</ele><time>2026-04-23T14:50:51.641Z</time></trkpt><trkpt lat="44.9595631" lon="7.5247544"><ele>251.40000000000003</ele><time>2026-04-23T14:50:52.64Z</time></trkpt><trkpt lat="44.9594814" lon="7.5246882"><ele>251.20000000000002</ele><time>2026-04-23T14:50:53.64Z</time></trkpt><trkpt lat="44.9594031" lon="7.5246281"><ele>251.0</ele><time>2026-04-23T14:50:54.641Z</time></trkpt><trkpt lat="44.9593272" lon="7.5245614"><ele>251.00000000000003</ele><time>2026-04-23T14:50:55.642Z</time></trkpt><trkpt lat="44.9592543" lon="7.5244972"><ele>251.0</ele><time>2026-04-23T14:50:56.641Z</time></trkpt><trkpt lat="44.9591878" lon="7.5244376"><ele>251.0</ele><time>2026-04-23T14:50:57.642Z</time></trkpt><trkpt lat="44.9591243" lon="7.5243821"><ele>251.0</ele><time>2026-04-23T14:50:58.641Z</time></trkpt><trkpt lat="44.9590391" lon="7.5243065"><ele>251.00000000000003</ele><time>2026-04-23T14:51:00.641Z</time></trkpt><trkpt lat="44.9589508" lon="7.5243384"><ele>251.0</ele><time>2026-04-23T14:51:03.641Z</time></trkpt><trkpt lat="44.9589279" lon="7.5244417"><ele>250.8</ele><time>2026-04-23T14:51:05.641Z</time></trkpt><trkpt lat="44.9589363" lon="7.5245443"><ele>250.60000000000002</ele><time>2026-04-23T14:51:06.641Z</time></trkpt><trkpt lat="44.95895" lon="7.5246874"><ele>250.4</ele><time>2026-04-23T14:51:07.641Z</time></trkpt><trkpt lat="44.9589622" lon="7.5248503"><ele>250.2</ele><time>2026-04-23T14:51:08.64Z</time></trkpt><trkpt lat="44.9589738" lon="7.525015"><ele>250.0</ele><time>2026-04-23T14:51:09.64Z</time></trkpt><trkpt lat="44.9589885" lon="7.5251841"><ele>250.0</ele><time>2026-04-23T14:51:10.64Z</time></trkpt><trkpt lat="44.9589986" lon="7.5253501"><ele>250.0</ele><time>2026-04-23T14:51:11.64Z</time></trkpt><trkpt lat="44.9590053" lon="7.525522"><ele>250.0</ele><time>2026-04-23T14:51:12.64Z</time></trkpt><trkpt lat="44.9590244" lon="7.5256949"><ele>250.0</ele><time>2026-04-23T14:51:13.64Z</time></trkpt><trkpt lat="44.9590431" lon="7.5258811"><ele>250.0</ele><time>2026-04-23T14:51:14.64Z</time></trkpt><trkpt lat="44.9590598" lon="7.5260877"><ele>250.0</ele><time>2026-04-23T14:51:15.641Z</time></trkpt><trkpt lat="44.9590681" lon="7.5263001"><ele>250.0</ele><time>2026-04-23T14:51:16.641Z</time></trkpt><trkpt lat="44.9590651" lon="7.5265454"><ele>250.0</ele><time>2026-04-23T14:51:17.64Z</time></trkpt><trkpt lat="44.9590498" lon="7.5268057"><ele>250.0</ele><time>2026-04-23T14:51:18.641Z</time></trkpt><trkpt lat="44.9590363" lon="7.5270507"><ele>250.0</ele><time>2026-04-23T14:51:19.641Z</time></trkpt><trkpt lat="44.9590228" lon="7.5272736"><ele>249.75</ele><time>2026-04-23T14:51:20.641Z</time></trkpt><trkpt lat="44.959006" lon="7.527481"><ele>249.5</ele><time>2026-04-23T14:51:21.641Z</time></trkpt><trkpt lat="44.9589896" lon="7.5276894"><ele>249.25</ele><time>2026-04-23T14:51:22.641Z</time></trkpt><trkpt lat="44.9589767" lon="7.5278771"><ele>249.0</ele><time>2026-04-23T14:51:23.641Z</time></trkpt><trkpt lat="44.9589652" lon="7.5280552"><ele>248.75</ele><time>2026-04-23T14:51:24.64Z</time></trkpt><trkpt lat="44.9589514" lon="7.5282275"><ele>248.5</ele><time>2026-04-23T14:51:25.64Z</time></trkpt><trkpt lat="44.9589373" lon="7.528391"><ele>248.25</ele><time>2026-04-23T14:51:26.642Z</time></trkpt><trkpt lat="44.9589214" lon="7.5285478"><ele>248.0</ele><time>2026-04-23T14:51:27.641Z</time></trkpt><trkpt lat="44.9588977" lon="7.5287076"><ele>248.5</ele><time>2026-04-23T14:51:28.641Z</time></trkpt><trkpt lat="44.9588565" lon="7.5288611"><ele>249.0</ele><time>2026-04-23T14:51:29.641Z</time></trkpt><trkpt lat="44.958795" lon="7.5290115"><ele>249.5</ele><time>2026-04-23T14:51:30.639Z</time></trkpt><trkpt lat="44.9587157" lon="7.5291703"><ele>250.0</ele><time>2026-04-23T14:51:31.641Z</time></trkpt><trkpt lat="44.9586337" lon="7.529349"><ele>250.0</ele><time>2026-04-23T14:51:32.64Z</time></trkpt><trkpt lat="44.9585493" lon="7.5295242"><ele>250.0</ele><time>2026-04-23T14:51:33.641Z</time></trkpt><trkpt lat="44.9584744" lon="7.5296834"><ele>250.0</ele><time>2026-04-23T14:51:34.64Z</time></trkpt><trkpt lat="44.9584006" lon="7.5298386"><ele>250.0</ele><time>2026-04-23T14:51:35.641Z</time></trkpt><trkpt lat="44.9583344" lon="7.529984"><ele>249.75</ele><time>2026-04-23T14:51:36.639Z</time></trkpt><trkpt lat="44.95827" lon="7.5301318"><ele>249.5</ele><time>2026-04-23T14:51:37.64Z</time></trkpt><trkpt lat="44.9582193" lon="7.5303041"><ele>249.25</ele><time>2026-04-23T14:51:38.64Z</time></trkpt><trkpt lat="44.9581827" lon="7.5304713"><ele>249.0</ele><time>2026-04-23T14:51:39.64Z</time></trkpt><trkpt lat="44.9581547" lon="7.5306399"><ele>249.0</ele><time>2026-04-23T14:51:40.64Z</time></trkpt><trkpt lat="44.9581372" lon="7.5308304"><ele>249.0</ele><time>2026-04-23T14:51:41.641Z</time></trkpt><trkpt lat="44.9581245" lon="7.5310391"><ele>249.0</ele><time>2026-04-23T14:51:42.64Z</time></trkpt><trkpt lat="44.9581103" lon="7.5312303"><ele>249.0</ele><time>2026-04-23T14:51:43.641Z</time></trkpt><trkpt lat="44.9580811" lon="7.531406"><ele>249.0</ele><time>2026-04-23T14:51:44.642Z</time></trkpt><trkpt lat="44.9580376" lon="7.5315847"><ele>249.0</ele><time>2026-04-23T14:51:45.641Z</time></trkpt><trkpt lat="44.9579715" lon="7.5317665"><ele>249.0</ele><time>2026-04-23T14:51:46.64Z</time></trkpt><trkpt lat="44.9578937" lon="7.5319518"><ele>249.0</ele><time>2026-04-23T14:51:47.641Z</time></trkpt><trkpt lat="44.9578168" lon="7.5321223"><ele>249.0</ele><time>2026-04-23T14:51:48.641Z</time></trkpt><trkpt lat="44.9577507" lon="7.5322994"><ele>249.0</ele><time>2026-04-23T14:51:49.64Z</time></trkpt><trkpt lat="44.9576896" lon="7.5324979"><ele>249.0</ele><time>2026-04-23T14:51:50.64Z</time></trkpt><trkpt lat="44.957638" lon="7.5326776"><ele>249.0</ele><time>2026-04-23T14:51:51.641Z</time></trkpt><trkpt lat="44.9575902" lon="7.5328522"><ele>248.75</ele><time>2026-04-23T14:51:52.641Z</time></trkpt><trkpt lat="44.9575572" lon="7.533045"><ele>248.5</ele><time>2026-04-23T14:51:53.64Z</time></trkpt><trkpt lat="44.9575386" lon="7.5332457"><ele>248.25</ele><time>2026-04-23T14:51:54.64Z</time></trkpt><trkpt lat="44.9575323" lon="7.533446"><ele>248.0</ele><time>2026-04-23T14:51:55.642Z</time></trkpt><trkpt lat="44.9575298" lon="7.5336532"><ele>248.0</ele><time>2026-04-23T14:51:56.64Z</time></trkpt><trkpt lat="44.9575251" lon="7.5338678"><ele>248.0</ele><time>2026-04-23T14:51:57.641Z</time></trkpt><trkpt lat="44.9575089" lon="7.5340947"><ele>248.0</ele><time>2026-04-23T14:51:58.64Z</time></trkpt><trkpt lat="44.9574874" lon="7.5343391"><ele>248.0</ele><time>2026-04-23T14:51:59.641Z</time></trkpt><trkpt lat="44.9574613" lon="7.5346035"><ele>248.0</ele><time>2026-04-23T14:52:00.641Z</time></trkpt><trkpt lat="44.9574309" lon="7.534864"><ele>248.0</ele><time>2026-04-23T14:52:01.639Z</time></trkpt><trkpt lat="44.9573992" lon="7.535109"><ele>248.0</ele><time>2026-04-23T14:52:02.64Z</time></trkpt><trkpt lat="44.9573686" lon="7.5353332"><ele>248.0</ele><time>2026-04-23T14:52:03.642Z</time></trkpt><trkpt lat="44.9573395" lon="7.5355386"><ele>248.0</ele><time>2026-04-23T14:52:04.64Z</time></trkpt><trkpt lat="44.9573116" lon="7.5357303"><ele>248.0</ele><time>2026-04-23T14:52:05.639Z</time></trkpt><trkpt lat="44.9572856" lon="7.5359161"><ele>248.0</ele><time>2026-04-23T14:52:06.64Z</time></trkpt><trkpt lat="44.9572558" lon="7.536113"><ele>248.0</ele><time>2026-04-23T14:52:07.642Z</time></trkpt><trkpt lat="44.9572254" lon="7.5363242"><ele>248.0</ele><time>2026-04-23T14:52:08.641Z</time></trkpt><trkpt lat="44.9571943" lon="7.5365383"><ele>248.25</ele><time>2026-04-23T14:52:09.64Z</time></trkpt><trkpt lat="44.957169" lon="7.5367313"><ele>248.5</ele><time>2026-04-23T14:52:10.641Z</time></trkpt><trkpt lat="44.9571506" lon="7.5369104"><ele>248.75</ele><time>2026-04-23T14:52:11.64Z</time></trkpt><trkpt lat="44.9571411" lon="7.5370773"><ele>249.0</ele><time>2026-04-23T14:52:12.642Z</time></trkpt><trkpt lat="44.9571346" lon="7.5372293"><ele>248.79999999999998</ele><time>2026-04-23T14:52:13.641Z</time></trkpt><trkpt lat="44.9571274" lon="7.5373786"><ele>248.59999999999997</ele><time>2026-04-23T14:52:14.641Z</time></trkpt><trkpt lat="44.9570967" lon="7.5375224"><ele>248.4</ele><time>2026-04-23T14:52:15.639Z</time></trkpt><trkpt lat="44.9570564" lon="7.5376727"><ele>248.2</ele><time>2026-04-23T14:52:16.639Z</time></trkpt><trkpt lat="44.9570151" lon="7.5378188"><ele>248.0</ele><time>2026-04-23T14:52:17.642Z</time></trkpt><trkpt lat="44.9569847" lon="7.537943"><ele>248.0</ele><time>2026-04-23T14:52:18.641Z</time></trkpt><trkpt lat="44.956958" lon="7.5380744"><ele>248.0</ele><time>2026-04-23T14:52:19.641Z</time></trkpt><trkpt lat="44.9569245" lon="7.5381983"><ele>248.0</ele><time>2026-04-23T14:52:20.641Z</time></trkpt><trkpt lat="44.9568947" lon="7.5383292"><ele>248.0</ele><time>2026-04-23T14:52:21.639Z</time></trkpt><trkpt lat="44.95686" lon="7.5384752"><ele>248.0</ele><time>2026-04-23T14:52:22.64Z</time></trkpt><trkpt lat="44.9568314" lon="7.5386239"><ele>248.25</ele><time>2026-04-23T14:52:23.639Z</time></trkpt><trkpt lat="44.9568006" lon="7.538777"><ele>248.5</ele><time>2026-04-23T14:52:24.641Z</time></trkpt><trkpt lat="44.9567745" lon="7.5389394"><ele>248.75</ele><time>2026-04-23T14:52:25.64Z</time></trkpt><trkpt lat="44.9567549" lon="7.5391092"><ele>249.0</ele><time>2026-04-23T14:52:26.639Z</time></trkpt><trkpt lat="44.9567346" lon="7.5392758"><ele>249.0</ele><time>2026-04-23T14:52:27.641Z</time></trkpt><trkpt lat="44.9567208" lon="7.5394522"><ele>249.0</ele><time>2026-04-23T14:52:28.641Z</time></trkpt><trkpt lat="44.9567108" lon="7.5396274"><ele>249.0</ele><time>2026-04-23T14:52:29.64Z</time></trkpt><trkpt lat="44.9566998" lon="7.5398084"><ele>249.0</ele><time>2026-04-23T14:52:30.641Z</time></trkpt><trkpt lat="44.9566905" lon="7.5399897"><ele>248.5</ele><time>2026-04-23T14:52:31.641Z</time></trkpt><trkpt lat="44.9566778" lon="7.5401756"><ele>248.0</ele><time>2026-04-23T14:52:32.64Z</time></trkpt><trkpt lat="44.9566678" lon="7.5403558"><ele>247.5</ele><time>2026-04-23T14:52:33.641Z</time></trkpt><trkpt lat="44.9566581" lon="7.5405274"><ele>247.0</ele><time>2026-04-23T14:52:34.641Z</time></trkpt><trkpt lat="44.9566465" lon="7.5406878"><ele>247.0</ele><time>2026-04-23T14:52:35.64Z</time></trkpt><trkpt lat="44.9566392" lon="7.5408464"><ele>247.0</ele><time>2026-04-23T14:52:36.639Z</time></trkpt><trkpt lat="44.95663" lon="7.5410078"><ele>247.0</ele><time>2026-04-23T14:52:37.641Z</time></trkpt><trkpt lat="44.9566242" lon="7.5411669"><ele>247.0</ele><time>2026-04-23T14:52:38.64Z</time></trkpt><trkpt lat="44.9566119" lon="7.5413221"><ele>246.75</ele><time>2026-04-23T14:52:39.639Z</time></trkpt><trkpt lat="44.956604" lon="7.5414841"><ele>246.5</ele><time>2026-04-23T14:52:40.641Z</time></trkpt><trkpt lat="44.9565954" lon="7.5416583"><ele>246.25</ele><time>2026-04-23T14:52:41.64Z</time></trkpt><trkpt lat="44.9565871" lon="7.5418373"><ele>246.0</ele><time>2026-04-23T14:52:42.641Z</time></trkpt><trkpt lat="44.9565787" lon="7.5420103"><ele>246.0</ele><time>2026-04-23T14:52:43.641Z</time></trkpt><trkpt lat="44.9565658" lon="7.5421865"><ele>246.0</ele><time>2026-04-23T14:52:44.641Z</time></trkpt><trkpt lat="44.9565515" lon="7.5423599"><ele>246.0</ele><time>2026-04-23T14:52:45.64Z</time></trkpt><trkpt lat="44.9565422" lon="7.5425371"><ele>246.0</ele><time>2026-04-23T14:52:46.641Z</time></trkpt><trkpt lat="44.9565351" lon="7.5427134"><ele>246.66666666666669</ele><time>2026-04-23T14:52:47.64Z</time></trkpt><trkpt lat="44.9565227" lon="7.5429064"><ele>247.33333333333334</ele><time>2026-04-23T14:52:48.641Z</time></trkpt><trkpt lat="44.9565147" lon="7.5431205"><ele>248.0</ele><time>2026-04-23T14:52:49.64Z</time></trkpt><trkpt lat="44.9565057" lon="7.5433492"><ele>248.0</ele><time>2026-04-23T14:52:50.64Z</time></trkpt><trkpt lat="44.9564919" lon="7.5435854"><ele>248.0</ele><time>2026-04-23T14:52:51.639Z</time></trkpt><trkpt lat="44.9564781" lon="7.5437981"><ele>248.0</ele><time>2026-04-23T14:52:52.64Z</time></trkpt><trkpt lat="44.9564671" lon="7.5439931"><ele>248.25</ele><time>2026-04-23T14:52:53.64Z</time></trkpt><trkpt lat="44.9564538" lon="7.5441774"><ele>248.5</ele><time>2026-04-23T14:52:54.64Z</time></trkpt><trkpt lat="44.9564402" lon="7.5443534"><ele>248.75</ele><time>2026-04-23T14:52:55.639Z</time></trkpt><trkpt lat="44.9564306" lon="7.5445222"><ele>249.0</ele><time>2026-04-23T14:52:56.639Z</time></trkpt><trkpt lat="44.9564205" lon="7.5446819"><ele>249.0</ele><time>2026-04-23T14:52:57.642Z</time></trkpt><trkpt lat="44.9564102" lon="7.5448321"><ele>248.99999999999997</ele><time>2026-04-23T14:52:58.639Z</time></trkpt><trkpt lat="44.9564016" lon="7.544968"><ele>248.99999999999997</ele><time>2026-04-23T14:52:59.641Z</time></trkpt><trkpt lat="44.9563928" lon="7.5450937"><ele>249.0</ele><time>2026-04-23T14:53:00.64Z</time></trkpt><trkpt lat="44.9563861" lon="7.5452112"><ele>249.0</ele><time>2026-04-23T14:53:01.639Z</time></trkpt><trkpt lat="44.9563766" lon="7.5453191"><ele>248.6</ele><time>2026-04-23T14:53:02.641Z</time></trkpt><trkpt lat="44.9563721" lon="7.5454141"><ele>248.2</ele><time>2026-04-23T14:53:03.64Z</time></trkpt><trkpt lat="44.9563654" lon="7.5455795"><ele>247.79999999999998</ele><time>2026-04-23T14:53:05.64Z</time></trkpt><trkpt lat="44.9563645" lon="7.5457086"><ele>247.39999999999998</ele><time>2026-04-23T14:53:07.64Z</time></trkpt><trkpt lat="44.9563326" lon="7.5458596"><ele>247.0</ele><time>2026-04-23T14:53:10.64Z</time></trkpt><trkpt lat="44.9562865" lon="7.545921"><ele>246.99999999999997</ele><time>2026-04-23T14:53:11.639Z</time></trkpt><trkpt lat="44.9562151" lon="7.545979"><ele>247.0</ele><time>2026-04-23T14:53:12.641Z</time></trkpt><trkpt lat="44.9561375" lon="7.5460305"><ele>247.0</ele><time>2026-04-23T14:53:13.64Z</time></trkpt><trkpt lat="44.9560601" lon="7.5460861"><ele>247.0</ele><time>2026-04-23T14:53:14.64Z</time></trkpt><trkpt lat="44.9559806" lon="7.5461437"><ele>246.99999999999997</ele><time>2026-04-23T14:53:15.64Z</time></trkpt><trkpt lat="44.9558908" lon="7.5462099"><ele>247.0</ele><time>2026-04-23T14:53:16.641Z</time></trkpt><trkpt lat="44.9557962" lon="7.5462902"><ele>246.75</ele><time>2026-04-23T14:53:17.64Z</time></trkpt><trkpt lat="44.9556942" lon="7.5463706"><ele>246.5</ele><time>2026-04-23T14:53:18.641Z</time></trkpt><trkpt lat="44.9555873" lon="7.5464567"><ele>246.25</ele><time>2026-04-23T14:53:19.639Z</time></trkpt><trkpt lat="44.9554795" lon="7.5465445"><ele>246.0</ele><time>2026-04-23T14:53:20.641Z</time></trkpt><trkpt lat="44.9553689" lon="7.5466295"><ele>246.0</ele><time>2026-04-23T14:53:21.64Z</time></trkpt><trkpt lat="44.9552519" lon="7.5467233"><ele>246.0</ele><time>2026-04-23T14:53:22.641Z</time></trkpt><trkpt lat="44.9551321" lon="7.54682"><ele>246.0</ele><time>2026-04-23T14:53:23.64Z</time></trkpt><trkpt lat="44.9550075" lon="7.5469196"><ele>246.0</ele><time>2026-04-23T14:53:24.641Z</time></trkpt><trkpt lat="44.9548862" lon="7.547017"><ele>245.25</ele><time>2026-04-23T14:53:25.641Z</time></trkpt><trkpt lat="44.9547705" lon="7.5471143"><ele>244.5</ele><time>2026-04-23T14:53:26.641Z</time></trkpt><trkpt lat="44.9546573" lon="7.5472047"><ele>243.75</ele><time>2026-04-23T14:53:27.641Z</time></trkpt><trkpt lat="44.9545528" lon="7.5472852"><ele>243.0</ele><time>2026-04-23T14:53:28.641Z</time></trkpt><trkpt lat="44.9544544" lon="7.5473622"><ele>243.0</ele><time>2026-04-23T14:53:29.64Z</time></trkpt><trkpt lat="44.9543702" lon="7.5474443"><ele>243.0</ele><time>2026-04-23T14:53:30.641Z</time></trkpt><trkpt lat="44.9543153" lon="7.5475423"><ele>243.0</ele><time>2026-04-23T14:53:31.64Z</time></trkpt><trkpt lat="44.9542924" lon="7.547658"><ele>243.0</ele><time>2026-04-23T14:53:32.64Z</time></trkpt><trkpt lat="44.9543079" lon="7.5477826"><ele>243.0</ele><time>2026-04-23T14:53:33.64Z</time></trkpt><trkpt lat="44.9543523" lon="7.5479156"><ele>243.25</ele><time>2026-04-23T14:53:34.641Z</time></trkpt><trkpt lat="44.9544111" lon="7.5480646"><ele>243.5</ele><time>2026-04-23T14:53:35.64Z</time></trkpt><trkpt lat="44.9544783" lon="7.5482236"><ele>243.75</ele><time>2026-04-23T14:53:36.64Z</time></trkpt><trkpt lat="44.9545464" lon="7.5483921"><ele>244.0</ele><time>2026-04-23T14:53:37.64Z</time></trkpt><trkpt lat="44.9546059" lon="7.548548"><ele>244.0</ele><time>2026-04-23T14:53:38.639Z</time></trkpt><trkpt lat="44.954658" lon="7.5486961"><ele>244.0</ele><time>2026-04-23T14:53:39.64Z</time></trkpt><trkpt lat="44.9546997" lon="7.5488511"><ele>244.0</ele><time>2026-04-23T14:53:40.64Z</time></trkpt><trkpt lat="44.9547305" lon="7.5490156"><ele>244.0</ele><time>2026-04-23T14:53:41.64Z</time></trkpt><trkpt lat="44.9547598" lon="7.5491804"><ele>243.99999999999997</ele><time>2026-04-23T14:53:42.64Z</time></trkpt><trkpt lat="44.9547752" lon="7.5493276"><ele>244.0</ele><time>2026-04-23T14:53:43.641Z</time></trkpt><trkpt lat="44.9547894" lon="7.5494577"><ele>244.0</ele><time>2026-04-23T14:53:44.64Z</time></trkpt><trkpt lat="44.9547907" lon="7.5495613"><ele>244.0</ele><time>2026-04-23T14:53:45.64Z</time></trkpt><trkpt lat="44.9547868" lon="7.5496529"><ele>243.99999999999997</ele><time>2026-04-23T14:53:46.639Z</time></trkpt><trkpt lat="44.954742" lon="7.5497685"><ele>244.0</ele><time>2026-04-23T14:53:48.642Z</time></trkpt><trkpt lat="44.9547023" lon="7.5498997"><ele>244.2</ele><time>2026-04-23T14:53:50.639Z</time></trkpt><trkpt lat="44.954701" lon="7.5499954"><ele>244.39999999999998</ele><time>2026-04-23T14:53:51.641Z</time></trkpt><trkpt lat="44.9547144" lon="7.5501108"><ele>244.6</ele><time>2026-04-23T14:53:52.639Z</time></trkpt><trkpt lat="44.9547274" lon="7.550244"><ele>244.8</ele><time>2026-04-23T14:53:53.639Z</time></trkpt><trkpt lat="44.9547293" lon="7.5503965"><ele>245.0</ele><time>2026-04-23T14:53:54.639Z</time></trkpt><trkpt lat="44.9547258" lon="7.5505657"><ele>245.0</ele><time>2026-04-23T14:53:55.641Z</time></trkpt><trkpt lat="44.9547154" lon="7.5507472"><ele>245.0</ele><time>2026-04-23T14:53:56.64Z</time></trkpt><trkpt lat="44.954696" lon="7.5509347"><ele>245.0</ele><time>2026-04-23T14:53:57.641Z</time></trkpt><trkpt lat="44.9546725" lon="7.5511304"><ele>245.0</ele><time>2026-04-23T14:53:58.639Z</time></trkpt><trkpt lat="44.9546514" lon="7.5513282"><ele>245.0</ele><time>2026-04-23T14:53:59.639Z</time></trkpt><trkpt lat="44.9546306" lon="7.5515215"><ele>245.0</ele><time>2026-04-23T14:54:00.639Z</time></trkpt><trkpt lat="44.9546241" lon="7.5517164"><ele>245.0</ele><time>2026-04-23T14:54:01.64Z</time></trkpt><trkpt lat="44.9546306" lon="7.5519025"><ele>245.0</ele><time>2026-04-23T14:54:02.639Z</time></trkpt><trkpt lat="44.954639" lon="7.5520787"><ele>245.0</ele><time>2026-04-23T14:54:03.639Z</time></trkpt><trkpt lat="44.9546365" lon="7.552248"><ele>245.0</ele><time>2026-04-23T14:54:04.641Z</time></trkpt><trkpt lat="44.9546241" lon="7.5524127"><ele>245.0</ele><time>2026-04-23T14:54:05.641Z</time></trkpt><trkpt lat="44.9545922" lon="7.5525842"><ele>245.0</ele><time>2026-04-23T14:54:06.639Z</time></trkpt><trkpt lat="44.9545508" lon="7.5527571"><ele>245.25</ele><time>2026-04-23T14:54:07.64Z</time></trkpt><trkpt lat="44.9545031" lon="7.5529375"><ele>245.5</ele><time>2026-04-23T14:54:08.64Z</time></trkpt><trkpt lat="44.954454" lon="7.5531191"><ele>245.75</ele><time>2026-04-23T14:54:09.64Z</time></trkpt><trkpt lat="44.9544005" lon="7.5532807"><ele>246.0</ele><time>2026-04-23T14:54:10.642Z</time></trkpt><trkpt lat="44.9543507" lon="7.5534231"><ele>246.0</ele><time>2026-04-23T14:54:11.641Z</time></trkpt><trkpt lat="44.9543072" lon="7.55355"><ele>246.0</ele><time>2026-04-23T14:54:12.64Z</time></trkpt><trkpt lat="44.9542758" lon="7.5536554"><ele>246.0</ele><time>2026-04-23T14:54:13.639Z</time></trkpt><trkpt lat="44.9542457" lon="7.553743"><ele>246.0</ele><time>2026-04-23T14:54:14.641Z</time></trkpt><trkpt lat="44.9542295" lon="7.5539182"><ele>246.0</ele><time>2026-04-23T14:54:16.64Z</time></trkpt><trkpt lat="44.9542601" lon="7.554014"><ele>246.0</ele><time>2026-04-23T14:54:17.641Z</time></trkpt><trkpt lat="44.9543216" lon="7.5541121"><ele>245.8</ele><time>2026-04-23T14:54:18.639Z</time></trkpt><trkpt lat="44.9543982" lon="7.5542026"><ele>245.60000000000002</ele><time>2026-04-23T14:54:19.641Z</time></trkpt><trkpt lat="44.9544815" lon="7.5542956"><ele>245.4</ele><time>2026-04-23T14:54:20.639Z</time></trkpt><trkpt lat="44.9545662" lon="7.5543926"><ele>245.2</ele><time>2026-04-23T14:54:21.639Z</time></trkpt><trkpt lat="44.9546414" lon="7.5544857"><ele>245.0</ele><time>2026-04-23T14:54:22.64Z</time></trkpt><trkpt lat="44.9547057" lon="7.5545649"><ele>244.8</ele><time>2026-04-23T14:54:23.641Z</time></trkpt><trkpt lat="44.9547587" lon="7.5546393"><ele>244.6</ele><time>2026-04-23T14:54:24.64Z</time></trkpt><trkpt lat="44.9547748" lon="7.5547873"><ele>244.39999999999998</ele><time>2026-04-23T14:54:26.64Z</time></trkpt><trkpt lat="44.9547194" lon="7.5548779"><ele>244.2</ele><time>2026-04-23T14:54:27.64Z</time></trkpt><trkpt lat="44.9546535" lon="7.5549713"><ele>244.0</ele><time>2026-04-23T14:54:28.639Z</time></trkpt><trkpt lat="44.9545869" lon="7.555082"><ele>244.0</ele><time>2026-04-23T14:54:29.639Z</time></trkpt><trkpt lat="44.9545192" lon="7.5551948"><ele>243.99999999999997</ele><time>2026-04-23T14:54:30.64Z</time></trkpt><trkpt lat="44.954455" lon="7.5553117"><ele>243.99999999999997</ele><time>2026-04-23T14:54:31.641Z</time></trkpt><trkpt lat="44.9543969" lon="7.5554165"><ele>244.0</ele><time>2026-04-23T14:54:32.639Z</time></trkpt><trkpt lat="44.9543459" lon="7.5555034"><ele>244.0</ele><time>2026-04-23T14:54:33.642Z</time></trkpt><trkpt lat="44.9542991" lon="7.5555852"><ele>243.79999999999998</ele><time>2026-04-23T14:54:34.641Z</time></trkpt><trkpt lat="44.9542517" lon="7.5556608"><ele>243.59999999999997</ele><time>2026-04-23T14:54:35.639Z</time></trkpt><trkpt lat="44.9542009" lon="7.5557369"><ele>243.4</ele><time>2026-04-23T14:54:36.639Z</time></trkpt><trkpt lat="44.9541061" lon="7.5558315"><ele>243.2</ele><time>2026-04-23T14:54:38.64Z</time></trkpt><trkpt lat="44.9540088" lon="7.5558805"><ele>243.0</ele><time>2026-04-23T14:54:40.64Z</time></trkpt><trkpt lat="44.9538887" lon="7.5559361"><ele>243.5</ele><time>2026-04-23T14:54:42.641Z</time></trkpt><trkpt lat="44.9538223" lon="7.555992"><ele>244.0</ele><time>2026-04-23T14:54:43.641Z</time></trkpt><trkpt lat="44.9537604" lon="7.556077"><ele>244.5</ele><time>2026-04-23T14:54:44.64Z</time></trkpt><trkpt lat="44.9537075" lon="7.5561845"><ele>245.0</ele><time>2026-04-23T14:54:45.639Z</time></trkpt><trkpt lat="44.9536592" lon="7.5562943"><ele>245.5</ele><time>2026-04-23T14:54:46.64Z</time></trkpt><trkpt lat="44.9536099" lon="7.5564125"><ele>246.0</ele><time>2026-04-23T14:54:47.641Z</time></trkpt><trkpt lat="44.9535768" lon="7.5565402"><ele>246.0</ele><time>2026-04-23T14:54:48.639Z</time></trkpt><trkpt lat="44.9535532" lon="7.5566267"><ele>246.0</ele><time>2026-04-23T14:54:49.64Z</time></trkpt><trkpt lat="44.9535698" lon="7.5567223"><ele>246.0</ele><time>2026-04-23T14:54:51.639Z</time></trkpt><trkpt lat="44.9536357" lon="7.5566634"><ele>246.0</ele><time>2026-04-23T14:54:54.639Z</time></trkpt><trkpt lat="44.9536323" lon="7.5565325"><ele>246.0</ele><time>2026-04-23T14:54:56.639Z</time></trkpt><trkpt lat="44.9536704" lon="7.5564109"><ele>246.0</ele><time>2026-04-23T14:54:58.639Z</time></trkpt><trkpt lat="44.9537707" lon="7.5563728"><ele>246.00000000000003</ele><time>2026-04-23T14:55:00.641Z</time></trkpt><trkpt lat="44.9538359" lon="7.5563752"><ele>246.0</ele><time>2026-04-23T14:55:01.64Z</time></trkpt><trkpt lat="44.9539084" lon="7.5563658"><ele>246.00000000000003</ele><time>2026-04-23T14:55:02.639Z</time></trkpt><trkpt lat="44.9539715" lon="7.5563264"><ele>246.00000000000003</ele><time>2026-04-23T14:55:03.64Z</time></trkpt><trkpt lat="44.9540182" lon="7.556246"><ele>246.0</ele><time>2026-04-23T14:55:04.64Z</time></trkpt><trkpt lat="44.9540284" lon="7.5561483"><ele>246.00000000000003</ele><time>2026-04-23T14:55:05.639Z</time></trkpt><trkpt lat="44.9540053" lon="7.5560541"><ele>246.00000000000003</ele><time>2026-04-23T14:55:06.639Z</time></trkpt><trkpt lat="44.9539552" lon="7.5559784"><ele>246.0</ele><time>2026-04-23T14:55:07.641Z</time></trkpt><trkpt lat="44.9538845" lon="7.5559242"><ele>246.0</ele><time>2026-04-23T14:55:08.64Z</time></trkpt><trkpt lat="44.9538133" lon="7.5558715"><ele>246.0</ele><time>2026-04-23T14:55:09.64Z</time></trkpt><trkpt lat="44.9537445" lon="7.5558041"><ele>246.0</ele><time>2026-04-23T14:55:10.64Z</time></trkpt><trkpt lat="44.9536849" lon="7.5557244"><ele>246.0</ele><time>2026-04-23T14:55:11.64Z</time></trkpt><trkpt lat="44.9536269" lon="7.5556432"><ele>246.0</ele><time>2026-04-23T14:55:12.639Z</time></trkpt><trkpt lat="44.9535755" lon="7.5555624"><ele>246.0</ele><time>2026-04-23T14:55:13.64Z</time></trkpt><trkpt lat="44.9535308" lon="7.5554918"><ele>246.0</ele><time>2026-04-23T14:55:14.639Z</time></trkpt><trkpt lat="44.9534868" lon="7.5554219"><ele>246.0</ele><time>2026-04-23T14:55:15.64Z</time></trkpt><trkpt lat="44.9534445" lon="7.5553547"><ele>246.0</ele><time>2026-04-23T14:55:16.64Z</time></trkpt><trkpt lat="44.9533673" lon="7.5552093"><ele>246.0</ele><time>2026-04-23T14:55:18.64Z</time></trkpt><trkpt lat="44.9533209" lon="7.5551188"><ele>246.0</ele><time>2026-04-23T14:55:19.64Z</time></trkpt><trkpt lat="44.9532649" lon="7.5550211"><ele>245.66666666666666</ele><time>2026-04-23T14:55:20.639Z</time></trkpt><trkpt lat="44.9532029" lon="7.5549192"><ele>245.33333333333331</ele><time>2026-04-23T14:55:21.639Z</time></trkpt><trkpt lat="44.9531497" lon="7.5548229"><ele>245.0</ele><time>2026-04-23T14:55:22.639Z</time></trkpt><trkpt lat="44.9531037" lon="7.5547354"><ele>244.66666666666666</ele><time>2026-04-23T14:55:23.64Z</time></trkpt><trkpt lat="44.953064" lon="7.5546569"><ele>244.33333333333331</ele><time>2026-04-23T14:55:24.64Z</time></trkpt><trkpt lat="44.9529973" lon="7.5545811"><ele>244.0</ele><time>2026-04-23T14:55:26.639Z</time></trkpt><trkpt lat="44.9529403" lon="7.5546304"><ele>243.99999999999997</ele><time>2026-04-23T14:55:28.64Z</time></trkpt><trkpt lat="44.9529525" lon="7.5547378"><ele>244.0</ele><time>2026-04-23T14:55:30.639Z</time></trkpt><trkpt lat="44.9529959" lon="7.5548108"><ele>244.0</ele><time>2026-04-23T14:55:31.64Z</time></trkpt><trkpt lat="44.953045" lon="7.5548927"><ele>244.0</ele><time>2026-04-23T14:55:32.64Z</time></trkpt><trkpt lat="44.9531052" lon="7.5549843"><ele>243.99999999999997</ele><time>2026-04-23T14:55:33.641Z</time></trkpt><trkpt lat="44.9531667" lon="7.5550872"><ele>244.0</ele><time>2026-04-23T14:55:34.64Z</time></trkpt><trkpt lat="44.9532193" lon="7.5551862"><ele>243.99999999999997</ele><time>2026-04-23T14:55:35.639Z</time></trkpt><trkpt lat="44.9532706" lon="7.5552689"><ele>244.0</ele><time>2026-04-23T14:55:36.642Z</time></trkpt><trkpt lat="44.9533137" lon="7.5553447"><ele>244.0</ele><time>2026-04-23T14:55:37.639Z</time></trkpt><trkpt lat="44.9533527" lon="7.5554212"><ele>244.0</ele><time>2026-04-23T14:55:38.639Z</time></trkpt><trkpt lat="44.9533819" lon="7.5555746"><ele>243.99999999999997</ele><time>2026-04-23T14:55:40.639Z</time></trkpt><trkpt lat="44.9533718" lon="7.5556952"><ele>244.0</ele><time>2026-04-23T14:55:42.64Z</time></trkpt><trkpt lat="44.9533125" lon="7.5558287"><ele>244.16666666666666</ele><time>2026-04-23T14:55:44.64Z</time></trkpt><trkpt lat="44.9532626" lon="7.5559579"><ele>244.33333333333331</ele><time>2026-04-23T14:55:46.641Z</time></trkpt><trkpt lat="44.9532354" lon="7.5560475"><ele>244.5</ele><time>2026-04-23T14:55:48.641Z</time></trkpt><trkpt lat="44.9532091" lon="7.5561372"><ele>244.66666666666669</ele><time>2026-04-23T14:55:52.64Z</time></trkpt><trkpt lat="44.953228" lon="7.5562834"><ele>244.83333333333334</ele><time>2026-04-23T14:55:55.64Z</time></trkpt><trkpt lat="44.9532286" lon="7.5563751"><ele>245.0</ele><time>2026-04-23T14:55:56.641Z</time></trkpt><trkpt lat="44.9532266" lon="7.5564692"><ele>245.16666666666669</ele><time>2026-04-23T14:55:57.64Z</time></trkpt><trkpt lat="44.9532243" lon="7.5565797"><ele>245.33333333333334</ele><time>2026-04-23T14:55:58.64Z</time></trkpt><trkpt lat="44.9532244" lon="7.5566883"><ele>245.5</ele><time>2026-04-23T14:55:59.64Z</time></trkpt><trkpt lat="44.9532238" lon="7.5568012"><ele>245.66666666666669</ele><time>2026-04-23T14:56:00.639Z</time></trkpt><trkpt lat="44.9532281" lon="7.5569102"><ele>245.83333333333334</ele><time>2026-04-23T14:56:01.64Z</time></trkpt><trkpt lat="44.9532343" lon="7.5570314"><ele>246.0</ele><time>2026-04-23T14:56:02.639Z</time></trkpt><trkpt lat="44.9532422" lon="7.5571585"><ele>246.0</ele><time>2026-04-23T14:56:03.639Z</time></trkpt><trkpt lat="44.9532468" lon="7.5573075"><ele>246.0</ele><time>2026-04-23T14:56:04.641Z</time></trkpt><trkpt lat="44.9532484" lon="7.5574722"><ele>246.0</ele><time>2026-04-23T14:56:05.639Z</time></trkpt><trkpt lat="44.9532531" lon="7.557642"><ele>246.0</ele><time>2026-04-23T14:56:06.639Z</time></trkpt><trkpt lat="44.9532564" lon="7.5578094"><ele>246.20000000000002</ele><time>2026-04-23T14:56:07.639Z</time></trkpt><trkpt lat="44.9532573" lon="7.5579649"><ele>246.40000000000003</ele><time>2026-04-23T14:56:08.639Z</time></trkpt><trkpt lat="44.9532568" lon="7.5581157"><ele>246.6</ele><time>2026-04-23T14:56:09.639Z</time></trkpt><trkpt lat="44.9532501" lon="7.5582587"><ele>246.8</ele><time>2026-04-23T14:56:10.639Z</time></trkpt><trkpt lat="44.9532406" lon="7.5583998"><ele>247.0</ele><time>2026-04-23T14:56:11.639Z</time></trkpt><trkpt lat="44.9532304" lon="7.5585399"><ele>246.99999999999997</ele><time>2026-04-23T14:56:12.64Z</time></trkpt><trkpt lat="44.9532199" lon="7.5586741"><ele>247.0</ele><time>2026-04-23T14:56:13.639Z</time></trkpt><trkpt lat="44.9532099" lon="7.558814"><ele>247.0</ele><time>2026-04-23T14:56:14.641Z</time></trkpt><trkpt lat="44.9532009" lon="7.5589383"><ele>247.0</ele><time>2026-04-23T14:56:15.64Z</time></trkpt><trkpt lat="44.9531934" lon="7.5590503"><ele>246.99999999999997</ele><time>2026-04-23T14:56:16.639Z</time></trkpt><trkpt lat="44.9531831" lon="7.5591611"><ele>247.0</ele><time>2026-04-23T14:56:17.64Z</time></trkpt><trkpt lat="44.9531686" lon="7.5592679"><ele>246.99999999999997</ele><time>2026-04-23T14:56:18.64Z</time></trkpt><trkpt lat="44.9531526" lon="7.5593828"><ele>247.0</ele><time>2026-04-23T14:56:19.639Z</time></trkpt><trkpt lat="44.9531389" lon="7.5594954"><ele>247.0</ele><time>2026-04-23T14:56:20.64Z</time></trkpt><trkpt lat="44.9531267" lon="7.5596029"><ele>247.0</ele><time>2026-04-23T14:56:21.639Z</time></trkpt><trkpt lat="44.9531136" lon="7.5597194"><ele>246.99999999999997</ele><time>2026-04-23T14:56:22.64Z</time></trkpt><trkpt lat="44.9530994" lon="7.5598334"><ele>247.0</ele><time>2026-04-23T14:56:23.64Z</time></trkpt><trkpt lat="44.9530847" lon="7.5599465"><ele>246.83333333333331</ele><time>2026-04-23T14:56:24.639Z</time></trkpt><trkpt lat="44.9530759" lon="7.5600591"><ele>246.66666666666666</ele><time>2026-04-23T14:56:25.64Z</time></trkpt><trkpt lat="44.9530586" lon="7.5601834"><ele>246.5</ele><time>2026-04-23T14:56:26.641Z</time></trkpt><trkpt lat="44.9530466" lon="7.5603021"><ele>246.33333333333331</ele><time>2026-04-23T14:56:27.64Z</time></trkpt><trkpt lat="44.9530381" lon="7.5604248"><ele>246.16666666666666</ele><time>2026-04-23T14:56:28.639Z</time></trkpt><trkpt lat="44.9530302" lon="7.5605548"><ele>246.0</ele><time>2026-04-23T14:56:29.64Z</time></trkpt><trkpt lat="44.9530279" lon="7.5606879"><ele>245.8</ele><time>2026-04-23T14:56:30.639Z</time></trkpt><trkpt lat="44.9530236" lon="7.5608226"><ele>245.60000000000002</ele><time>2026-04-23T14:56:31.64Z</time></trkpt><trkpt lat="44.9530232" lon="7.5609631"><ele>245.4</ele><time>2026-04-23T14:56:32.639Z</time></trkpt><trkpt lat="44.9530238" lon="7.5611015"><ele>245.2</ele><time>2026-04-23T14:56:33.64Z</time></trkpt><trkpt lat="44.9530248" lon="7.5612527"><ele>245.0</ele><time>2026-04-23T14:56:34.639Z</time></trkpt><trkpt lat="44.9530259" lon="7.5614097"><ele>245.0</ele><time>2026-04-23T14:56:35.64Z</time></trkpt><trkpt lat="44.9530298" lon="7.5615607"><ele>245.0</ele><time>2026-04-23T14:56:36.639Z</time></trkpt><trkpt lat="44.9530346" lon="7.5617179"><ele>245.0</ele><time>2026-04-23T14:56:37.64Z</time></trkpt><trkpt lat="44.9530311" lon="7.561874"><ele>245.0</ele><time>2026-04-23T14:56:38.64Z</time></trkpt><trkpt lat="44.9530302" lon="7.5620358"><ele>245.0</ele><time>2026-04-23T14:56:39.64Z</time></trkpt><trkpt lat="44.9530286" lon="7.5621884"><ele>244.5</ele><time>2026-04-23T14:56:40.639Z</time></trkpt><trkpt lat="44.9530219" lon="7.562344"><ele>244.0</ele><time>2026-04-23T14:56:41.641Z</time></trkpt><trkpt lat="44.9530234" lon="7.5625132"><ele>243.5</ele><time>2026-04-23T14:56:42.64Z</time></trkpt><trkpt lat="44.9530189" lon="7.5626692"><ele>243.0</ele><time>2026-04-23T14:56:43.639Z</time></trkpt><trkpt lat="44.9530161" lon="7.5628319"><ele>242.8</ele><time>2026-04-23T14:56:44.639Z</time></trkpt><trkpt lat="44.9530126" lon="7.5629884"><ele>242.60000000000002</ele><time>2026-04-23T14:56:45.639Z</time></trkpt><trkpt lat="44.9530104" lon="7.5631433"><ele>242.39999999999998</ele><time>2026-04-23T14:56:46.639Z</time></trkpt><trkpt lat="44.953007" lon="7.5633045"><ele>242.2</ele><time>2026-04-23T14:56:47.641Z</time></trkpt><trkpt lat="44.9530031" lon="7.5634603"><ele>242.0</ele><time>2026-04-23T14:56:48.639Z</time></trkpt><trkpt lat="44.9530001" lon="7.5636226"><ele>242.5</ele><time>2026-04-23T14:56:49.641Z</time></trkpt><trkpt lat="44.9530025" lon="7.5637935"><ele>243.0</ele><time>2026-04-23T14:56:50.64Z</time></trkpt><trkpt lat="44.9529981" lon="7.5639624"><ele>243.5</ele><time>2026-04-23T14:56:51.64Z</time></trkpt><trkpt lat="44.9529934" lon="7.5641277"><ele>244.0</ele><time>2026-04-23T14:56:52.64Z</time></trkpt><trkpt lat="44.9529899" lon="7.564296"><ele>244.0</ele><time>2026-04-23T14:56:53.64Z</time></trkpt><trkpt lat="44.9529865" lon="7.5644651"><ele>244.0</ele><time>2026-04-23T14:56:54.64Z</time></trkpt><trkpt lat="44.9529826" lon="7.5646266"><ele>244.0</ele><time>2026-04-23T14:56:55.639Z</time></trkpt><trkpt lat="44.9529773" lon="7.5647821"><ele>244.0</ele><time>2026-04-23T14:56:56.639Z</time></trkpt><trkpt lat="44.9529731" lon="7.5649413"><ele>243.5</ele><time>2026-04-23T14:56:57.64Z</time></trkpt><trkpt lat="44.9529628" lon="7.565106"><ele>243.0</ele><time>2026-04-23T14:56:58.64Z</time></trkpt><trkpt lat="44.9529463" lon="7.5652746"><ele>242.5</ele><time>2026-04-23T14:56:59.639Z</time></trkpt><trkpt lat="44.9529215" lon="7.5654519"><ele>242.0</ele><time>2026-04-23T14:57:00.64Z</time></trkpt><trkpt lat="44.9528934" lon="7.5656472"><ele>242.0</ele><time>2026-04-23T14:57:01.64Z</time></trkpt><trkpt lat="44.9528609" lon="7.565851"><ele>242.0</ele><time>2026-04-23T14:57:02.639Z</time></trkpt><trkpt lat="44.9528297" lon="7.5660625"><ele>242.0</ele><time>2026-04-23T14:57:03.64Z</time></trkpt><trkpt lat="44.9528027" lon="7.566266"><ele>242.0</ele><time>2026-04-23T14:57:04.639Z</time></trkpt><trkpt lat="44.9527789" lon="7.5664735"><ele>242.33333333333334</ele><time>2026-04-23T14:57:05.639Z</time></trkpt><trkpt lat="44.952753" lon="7.5666849"><ele>242.66666666666669</ele><time>2026-04-23T14:57:06.639Z</time></trkpt><trkpt lat="44.9527259" lon="7.5668984"><ele>243.0</ele><time>2026-04-23T14:57:07.639Z</time></trkpt><trkpt lat="44.952689" lon="7.5671534"><ele>243.0</ele><time>2026-04-23T14:57:08.639Z</time></trkpt><trkpt lat="44.9526538" lon="7.5673772"><ele>243.0</ele><time>2026-04-23T14:57:09.64Z</time></trkpt><trkpt lat="44.9526227" lon="7.567581"><ele>243.0</ele><time>2026-04-23T14:57:10.639Z</time></trkpt><trkpt lat="44.952591" lon="7.5677744"><ele>243.0</ele><time>2026-04-23T14:57:11.639Z</time></trkpt><trkpt lat="44.9525611" lon="7.5679692"><ele>243.0</ele><time>2026-04-23T14:57:12.639Z</time></trkpt><trkpt lat="44.9525328" lon="7.5681621"><ele>243.0</ele><time>2026-04-23T14:57:13.639Z</time></trkpt><trkpt lat="44.9525075" lon="7.5683403"><ele>243.0</ele><time>2026-04-23T14:57:14.64Z</time></trkpt><trkpt lat="44.9524875" lon="7.5685096"><ele>242.60000000000002</ele><time>2026-04-23T14:57:15.641Z</time></trkpt><trkpt lat="44.9524707" lon="7.5686658"><ele>242.20000000000002</ele><time>2026-04-23T14:57:16.639Z</time></trkpt><trkpt lat="44.9524577" lon="7.5688128"><ele>241.8</ele><time>2026-04-23T14:57:17.639Z</time></trkpt><trkpt lat="44.9524497" lon="7.5689562"><ele>241.4</ele><time>2026-04-23T14:57:18.64Z</time></trkpt><trkpt lat="44.9524451" lon="7.5690917"><ele>241.0</ele><time>2026-04-23T14:57:19.641Z</time></trkpt><trkpt lat="44.9524414" lon="7.5692262"><ele>240.99999999999997</ele><time>2026-04-23T14:57:20.639Z</time></trkpt><trkpt lat="44.9524362" lon="7.569355"><ele>241.0</ele><time>2026-04-23T14:57:21.64Z</time></trkpt><trkpt lat="44.9524348" lon="7.5694763"><ele>241.0</ele><time>2026-04-23T14:57:22.639Z</time></trkpt><trkpt lat="44.9524381" lon="7.5695869"><ele>241.0</ele><time>2026-04-23T14:57:23.641Z</time></trkpt><trkpt lat="44.9524493" lon="7.5696854"><ele>240.99999999999997</ele><time>2026-04-23T14:57:24.639Z</time></trkpt><trkpt lat="44.9524786" lon="7.5698431"><ele>241.0</ele><time>2026-04-23T14:57:26.64Z</time></trkpt><trkpt lat="44.9524675" lon="7.5699816"><ele>240.99999999999997</ele><time>2026-04-23T14:57:28.64Z</time></trkpt><trkpt lat="44.9524298" lon="7.5701232"><ele>241.0</ele><time>2026-04-23T14:57:30.638Z</time></trkpt><trkpt lat="44.9524012" lon="7.570294"><ele>241.0</ele><time>2026-04-23T14:57:32.641Z</time></trkpt><trkpt lat="44.9523947" lon="7.5703923"><ele>241.0</ele><time>2026-04-23T14:57:33.639Z</time></trkpt><trkpt lat="44.9523902" lon="7.5704899"><ele>240.99999999999997</ele><time>2026-04-23T14:57:34.639Z</time></trkpt><trkpt lat="44.952386" lon="7.5705948"><ele>241.0</ele><time>2026-04-23T14:57:35.639Z</time></trkpt><trkpt lat="44.9523787" lon="7.5707028"><ele>241.16666666666666</ele><time>2026-04-23T14:57:36.638Z</time></trkpt><trkpt lat="44.9523749" lon="7.5708102"><ele>241.33333333333331</ele><time>2026-04-23T14:57:37.64Z</time></trkpt><trkpt lat="44.9523705" lon="7.570914"><ele>241.5</ele><time>2026-04-23T14:57:38.639Z</time></trkpt><trkpt lat="44.9523673" lon="7.5710251"><ele>241.66666666666669</ele><time>2026-04-23T14:57:39.639Z</time></trkpt><trkpt lat="44.9523633" lon="7.5711415"><ele>241.83333333333334</ele><time>2026-04-23T14:57:40.639Z</time></trkpt><trkpt lat="44.9523586" lon="7.5712563"><ele>242.0</ele><time>2026-04-23T14:57:41.641Z</time></trkpt><trkpt lat="44.9523512" lon="7.5713717"><ele>242.00000000000003</ele><time>2026-04-23T14:57:42.639Z</time></trkpt><trkpt lat="44.9523443" lon="7.5714947"><ele>242.0</ele><time>2026-04-23T14:57:43.64Z</time></trkpt><trkpt lat="44.9523378" lon="7.5716153"><ele>242.0</ele><time>2026-04-23T14:57:44.639Z</time></trkpt><trkpt lat="44.9523321" lon="7.5717361"><ele>242.0</ele><time>2026-04-23T14:57:45.639Z</time></trkpt><trkpt lat="44.9523252" lon="7.5718619"><ele>242.00000000000003</ele><time>2026-04-23T14:57:46.639Z</time></trkpt><trkpt lat="44.9523185" lon="7.5719911"><ele>242.0</ele><time>2026-04-23T14:57:47.639Z</time></trkpt><trkpt lat="44.952313" lon="7.5721176"><ele>242.00000000000003</ele><time>2026-04-23T14:57:48.64Z</time></trkpt><trkpt lat="44.9523062" lon="7.5722426"><ele>242.0</ele><time>2026-04-23T14:57:49.641Z</time></trkpt><trkpt lat="44.9522992" lon="7.572364"><ele>242.0</ele><time>2026-04-23T14:57:50.639Z</time></trkpt><trkpt lat="44.9522938" lon="7.5724845"><ele>242.0</ele><time>2026-04-23T14:57:51.639Z</time></trkpt><trkpt lat="44.9522921" lon="7.5726061"><ele>242.00000000000003</ele><time>2026-04-23T14:57:52.639Z</time></trkpt><trkpt lat="44.9522878" lon="7.5727205"><ele>242.0</ele><time>2026-04-23T14:57:53.638Z</time></trkpt><trkpt lat="44.9522847" lon="7.5728326"><ele>241.8</ele><time>2026-04-23T14:57:54.641Z</time></trkpt><trkpt lat="44.9522796" lon="7.5729231"><ele>241.6</ele><time>2026-04-23T14:57:55.64Z</time></trkpt><trkpt lat="44.9522271" lon="7.5730558"><ele>241.40000000000003</ele><time>2026-04-23T14:57:57.64Z</time></trkpt><trkpt lat="44.9521128" lon="7.573153"><ele>241.20000000000002</ele><time>2026-04-23T14:57:59.639Z</time></trkpt><trkpt lat="44.9520449" lon="7.5731831"><ele>241.0</ele><time>2026-04-23T14:58:00.639Z</time></trkpt><trkpt lat="44.9519671" lon="7.573197"><ele>240.99999999999997</ele><time>2026-04-23T14:58:01.64Z</time></trkpt><trkpt lat="44.9518671" lon="7.5732049"><ele>241.0</ele><time>2026-04-23T14:58:02.638Z</time></trkpt><trkpt lat="44.9517581" lon="7.5732262"><ele>241.0</ele><time>2026-04-23T14:58:03.639Z</time></trkpt><trkpt lat="44.9516685" lon="7.5732358"><ele>241.0</ele><time>2026-04-23T14:58:04.64Z</time></trkpt><trkpt lat="44.9515924" lon="7.5732486"><ele>240.99999999999997</ele><time>2026-04-23T14:58:05.64Z</time></trkpt><trkpt lat="44.9515255" lon="7.5732564"><ele>241.0</ele><time>2026-04-23T14:58:06.639Z</time></trkpt><trkpt lat="44.9514098" lon="7.5732813"><ele>241.20000000000002</ele><time>2026-04-23T14:58:08.64Z</time></trkpt><trkpt lat="44.9513132" lon="7.5732964"><ele>241.40000000000003</ele><time>2026-04-23T14:58:10.64Z</time></trkpt><trkpt lat="44.9512379" lon="7.5733147"><ele>241.6</ele><time>2026-04-23T14:58:12.641Z</time></trkpt><trkpt lat="44.9511653" lon="7.5734056"><ele>241.8</ele><time>2026-04-23T14:58:21.639Z</time></trkpt><trkpt lat="44.9511993" lon="7.5735841"><ele>242.0</ele><time>2026-04-23T14:58:23.641Z</time></trkpt><trkpt lat="44.9512343" lon="7.5737142"><ele>242.0</ele><time>2026-04-23T14:58:24.639Z</time></trkpt><trkpt lat="44.9512771" lon="7.5738571"><ele>242.0</ele><time>2026-04-23T14:58:25.639Z</time></trkpt><trkpt lat="44.9513244" lon="7.5740189"><ele>242.0</ele><time>2026-04-23T14:58:26.638Z</time></trkpt><trkpt lat="44.9513729" lon="7.5742066"><ele>242.0</ele><time>2026-04-23T14:58:27.64Z</time></trkpt><trkpt lat="44.9514278" lon="7.5744078"><ele>241.33333333333334</ele><time>2026-04-23T14:58:28.638Z</time></trkpt><trkpt lat="44.9514931" lon="7.5746361"><ele>240.66666666666669</ele><time>2026-04-23T14:58:29.639Z</time></trkpt><trkpt lat="44.9515629" lon="7.5748868"><ele>240.0</ele><time>2026-04-23T14:58:30.64Z</time></trkpt><trkpt lat="44.9516387" lon="7.575159"><ele>239.0</ele><time>2026-04-23T14:58:31.639Z</time></trkpt><trkpt lat="44.9517199" lon="7.5754459"><ele>238.0</ele><time>2026-04-23T14:58:32.64Z</time></trkpt><trkpt lat="44.9518041" lon="7.5757551"><ele>238.0</ele><time>2026-04-23T14:58:33.638Z</time></trkpt><trkpt lat="44.9518964" lon="7.5760769"><ele>238.0</ele><time>2026-04-23T14:58:34.638Z</time></trkpt><trkpt lat="44.9519908" lon="7.5764077"><ele>238.0</ele><time>2026-04-23T14:58:35.638Z</time></trkpt><trkpt lat="44.952082" lon="7.576735"><ele>238.0</ele><time>2026-04-23T14:58:36.638Z</time></trkpt><trkpt lat="44.9521706" lon="7.577043"><ele>238.0</ele><time>2026-04-23T14:58:37.64Z</time></trkpt><trkpt lat="44.9522541" lon="7.5773338"><ele>238.0</ele><time>2026-04-23T14:58:38.64Z</time></trkpt><trkpt lat="44.9523341" lon="7.5776164"><ele>238.0</ele><time>2026-04-23T14:58:39.64Z</time></trkpt><trkpt lat="44.9524123" lon="7.5778921"><ele>238.33333333333331</ele><time>2026-04-23T14:58:40.639Z</time></trkpt><trkpt lat="44.9524899" lon="7.5781727"><ele>238.66666666666669</ele><time>2026-04-23T14:58:41.639Z</time></trkpt><trkpt lat="44.9525674" lon="7.578449"><ele>239.0</ele><time>2026-04-23T14:58:42.639Z</time></trkpt><trkpt lat="44.9526412" lon="7.5787348"><ele>239.0</ele><time>2026-04-23T14:58:43.639Z</time></trkpt><trkpt lat="44.9527198" lon="7.5790139"><ele>239.0</ele><time>2026-04-23T14:58:44.639Z</time></trkpt><trkpt lat="44.9527992" lon="7.5792909"><ele>239.0</ele><time>2026-04-23T14:58:45.639Z</time></trkpt><trkpt lat="44.9528772" lon="7.5795673"><ele>239.0</ele><time>2026-04-23T14:58:46.64Z</time></trkpt><trkpt lat="44.9529556" lon="7.579848"><ele>239.0</ele><time>2026-04-23T14:58:47.639Z</time></trkpt><trkpt lat="44.9530305" lon="7.5801184"><ele>239.0</ele><time>2026-04-23T14:58:48.64Z</time></trkpt><trkpt lat="44.9531063" lon="7.580373"><ele>239.33333333333334</ele><time>2026-04-23T14:58:49.638Z</time></trkpt><trkpt lat="44.9531759" lon="7.5806181"><ele>239.66666666666669</ele><time>2026-04-23T14:58:50.64Z</time></trkpt><trkpt lat="44.9532415" lon="7.5808551"><ele>240.0</ele><time>2026-04-23T14:58:51.641Z</time></trkpt><trkpt lat="44.9533037" lon="7.5810842"><ele>240.0</ele><time>2026-04-23T14:58:52.638Z</time></trkpt><trkpt lat="44.9533678" lon="7.5813145"><ele>240.0</ele><time>2026-04-23T14:58:53.639Z</time></trkpt><trkpt lat="44.9534318" lon="7.5815452"><ele>240.0</ele><time>2026-04-23T14:58:54.638Z</time></trkpt><trkpt lat="44.9534929" lon="7.581779"><ele>240.0</ele><time>2026-04-23T14:58:55.638Z</time></trkpt><trkpt lat="44.9535538" lon="7.5820058"><ele>240.0</ele><time>2026-04-23T14:58:56.639Z</time></trkpt><trkpt lat="44.953619" lon="7.5822377"><ele>240.0</ele><time>2026-04-23T14:58:57.64Z</time></trkpt><trkpt lat="44.9536825" lon="7.5824703"><ele>240.0</ele><time>2026-04-23T14:58:58.639Z</time></trkpt><trkpt lat="44.9537441" lon="7.5826893"><ele>240.0</ele><time>2026-04-23T14:58:59.64Z</time></trkpt><trkpt lat="44.9538063" lon="7.5829"><ele>240.0</ele><time>2026-04-23T14:59:00.64Z</time></trkpt><trkpt lat="44.9538628" lon="7.5831002"><ele>239.75</ele><time>2026-04-23T14:59:01.64Z</time></trkpt><trkpt lat="44.9539159" lon="7.5832777"><ele>239.5</ele><time>2026-04-23T14:59:02.641Z</time></trkpt><trkpt lat="44.9539587" lon="7.5834353"><ele>239.25</ele><time>2026-04-23T14:59:03.638Z</time></trkpt><trkpt lat="44.9539974" lon="7.5835679"><ele>239.0</ele><time>2026-04-23T14:59:04.639Z</time></trkpt><trkpt lat="44.9540314" lon="7.5836911"><ele>238.83333333333334</ele><time>2026-04-23T14:59:05.638Z</time></trkpt><trkpt lat="44.9540567" lon="7.5837857"><ele>238.66666666666669</ele><time>2026-04-23T14:59:06.641Z</time></trkpt><trkpt lat="44.9540814" lon="7.583913"><ele>238.5</ele><time>2026-04-23T14:59:08.638Z</time></trkpt><trkpt lat="44.9540794" lon="7.5840182"><ele>238.33333333333331</ele><time>2026-04-23T14:59:11.638Z</time></trkpt><trkpt lat="44.9540655" lon="7.584114"><ele>238.16666666666666</ele><time>2026-04-23T14:59:14.639Z</time></trkpt><trkpt lat="44.9540293" lon="7.5842389"><ele>238.0</ele><time>2026-04-23T14:59:16.64Z</time></trkpt><trkpt lat="44.95399" lon="7.5844135"><ele>238.4</ele><time>2026-04-23T14:59:18.638Z</time></trkpt><trkpt lat="44.9539657" lon="7.5845358"><ele>238.8</ele><time>2026-04-23T14:59:19.639Z</time></trkpt><trkpt lat="44.9539347" lon="7.5846569"><ele>239.2</ele><time>2026-04-23T14:59:20.64Z</time></trkpt><trkpt lat="44.9538828" lon="7.5847817"><ele>239.6</ele><time>2026-04-23T14:59:21.639Z</time></trkpt><trkpt lat="44.9538062" lon="7.5849065"><ele>240.0</ele><time>2026-04-23T14:59:22.64Z</time></trkpt><trkpt lat="44.9537146" lon="7.5850349"><ele>240.0</ele><time>2026-04-23T14:59:23.638Z</time></trkpt><trkpt lat="44.9536115" lon="7.5851772"><ele>240.0</ele><time>2026-04-23T14:59:24.638Z</time></trkpt><trkpt lat="44.9535008" lon="7.5853275"><ele>240.0</ele><time>2026-04-23T14:59:25.641Z</time></trkpt><trkpt lat="44.9533891" lon="7.5854876"><ele>239.33333333333331</ele><time>2026-04-23T14:59:26.641Z</time></trkpt><trkpt lat="44.953273" lon="7.5856596"><ele>238.66666666666666</ele><time>2026-04-23T14:59:27.639Z</time></trkpt><trkpt lat="44.9531568" lon="7.5858459"><ele>238.0</ele><time>2026-04-23T14:59:28.639Z</time></trkpt><trkpt lat="44.953048" lon="7.5860496"><ele>239.0</ele><time>2026-04-23T14:59:29.64Z</time></trkpt><trkpt lat="44.9529548" lon="7.5862706"><ele>240.0</ele><time>2026-04-23T14:59:30.641Z</time></trkpt><trkpt lat="44.9528873" lon="7.5865037"><ele>241.0</ele><time>2026-04-23T14:59:31.639Z</time></trkpt><trkpt lat="44.9528346" lon="7.5867317"><ele>241.0</ele><time>2026-04-23T14:59:32.638Z</time></trkpt><trkpt lat="44.9527968" lon="7.5869656"><ele>241.0</ele><time>2026-04-23T14:59:33.639Z</time></trkpt><trkpt lat="44.9527788" lon="7.587198"><ele>241.0</ele><time>2026-04-23T14:59:34.638Z</time></trkpt><trkpt lat="44.952777" lon="7.5874263"><ele>240.66666666666666</ele><time>2026-04-23T14:59:35.638Z</time></trkpt><trkpt lat="44.9527975" lon="7.5876653"><ele>240.33333333333331</ele><time>2026-04-23T14:59:36.64Z</time></trkpt><trkpt lat="44.9528386" lon="7.5879345"><ele>240.0</ele><time>2026-04-23T14:59:37.639Z</time></trkpt><trkpt lat="44.9529094" lon="7.5882322"><ele>239.5</ele><time>2026-04-23T14:59:38.638Z</time></trkpt><trkpt lat="44.9529956" lon="7.5885493"><ele>239.0</ele><time>2026-04-23T14:59:39.638Z</time></trkpt><trkpt lat="44.953088" lon="7.5888933"><ele>239.0</ele><time>2026-04-23T14:59:40.64Z</time></trkpt><trkpt lat="44.95318" lon="7.5892481"><ele>239.0</ele><time>2026-04-23T14:59:41.64Z</time></trkpt><trkpt lat="44.9532604" lon="7.5895773"><ele>239.0</ele><time>2026-04-23T14:59:42.639Z</time></trkpt><trkpt lat="44.9533546" lon="7.5898794"><ele>239.0</ele><time>2026-04-23T14:59:43.639Z</time></trkpt><trkpt lat="44.953466" lon="7.5901722"><ele>240.0</ele><time>2026-04-23T14:59:44.639Z</time></trkpt><trkpt lat="44.9535993" lon="7.5904555"><ele>241.0</ele><time>2026-04-23T14:59:45.64Z</time></trkpt><trkpt lat="44.9537555" lon="7.5907455"><ele>241.0</ele><time>2026-04-23T14:59:46.639Z</time></trkpt><trkpt lat="44.9539224" lon="7.5910503"><ele>241.0</ele><time>2026-04-23T14:59:47.64Z</time></trkpt><trkpt lat="44.954083" lon="7.5913445"><ele>240.0</ele><time>2026-04-23T14:59:48.64Z</time></trkpt><trkpt lat="44.9542394" lon="7.5916228"><ele>239.0</ele><time>2026-04-23T14:59:49.638Z</time></trkpt><trkpt lat="44.9543835" lon="7.5918796"><ele>239.0</ele><time>2026-04-23T14:59:50.64Z</time></trkpt><trkpt lat="44.9545156" lon="7.5921222"><ele>239.0</ele><time>2026-04-23T14:59:51.639Z</time></trkpt><trkpt lat="44.9546322" lon="7.5923571"><ele>239.0</ele><time>2026-04-23T14:59:52.638Z</time></trkpt><trkpt lat="44.9547312" lon="7.5926001"><ele>239.66666666666669</ele><time>2026-04-23T14:59:53.639Z</time></trkpt><trkpt lat="44.9548097" lon="7.592856"><ele>240.33333333333331</ele><time>2026-04-23T14:59:54.639Z</time></trkpt><trkpt lat="44.9548654" lon="7.5931246"><ele>241.0</ele><time>2026-04-23T14:59:55.64Z</time></trkpt><trkpt lat="44.9548912" lon="7.5933869"><ele>241.0</ele><time>2026-04-23T14:59:56.639Z</time></trkpt><trkpt lat="44.9548962" lon="7.5936324"><ele>241.0</ele><time>2026-04-23T14:59:57.64Z</time></trkpt><trkpt lat="44.9548823" lon="7.5938784"><ele>241.0</ele><time>2026-04-23T14:59:58.638Z</time></trkpt><trkpt lat="44.9548501" lon="7.5941264"><ele>239.66666666666666</ele><time>2026-04-23T14:59:59.639Z</time></trkpt><trkpt lat="44.9547922" lon="7.5943918"><ele>238.33333333333331</ele><time>2026-04-23T15:00:00.639Z</time></trkpt><trkpt lat="44.9547228" lon="7.5946804"><ele>237.0</ele><time>2026-04-23T15:00:01.639Z</time></trkpt><trkpt lat="44.9546522" lon="7.5949827"><ele>236.66666666666669</ele><time>2026-04-23T15:00:02.64Z</time></trkpt><trkpt lat="44.9545777" lon="7.5952766"><ele>236.33333333333334</ele><time>2026-04-23T15:00:03.638Z</time></trkpt><trkpt lat="44.9545024" lon="7.5955602"><ele>236.0</ele><time>2026-04-23T15:00:04.64Z</time></trkpt><trkpt lat="44.9544235" lon="7.5958204"><ele>235.66666666666669</ele><time>2026-04-23T15:00:05.639Z</time></trkpt><trkpt lat="44.9543369" lon="7.5960515"><ele>235.33333333333331</ele><time>2026-04-23T15:00:06.638Z</time></trkpt><trkpt lat="44.954247" lon="7.5962381"><ele>235.0</ele><time>2026-04-23T15:00:07.639Z</time></trkpt><trkpt lat="44.9541688" lon="7.596399"><ele>236.25</ele><time>2026-04-23T15:00:08.64Z</time></trkpt><trkpt lat="44.9540899" lon="7.5965329"><ele>237.5</ele><time>2026-04-23T15:00:09.639Z</time></trkpt><trkpt lat="44.9540076" lon="7.5966477"><ele>238.75</ele><time>2026-04-23T15:00:10.638Z</time></trkpt><trkpt lat="44.9539163" lon="7.5967419"><ele>240.0</ele><time>2026-04-23T15:00:11.639Z</time></trkpt><trkpt lat="44.953836" lon="7.5968306"><ele>240.0</ele><time>2026-04-23T15:00:12.638Z</time></trkpt><trkpt lat="44.953772" lon="7.5969391"><ele>240.0</ele><time>2026-04-23T15:00:13.638Z</time></trkpt><trkpt lat="44.9537433" lon="7.5970595"><ele>240.0</ele><time>2026-04-23T15:00:14.64Z</time></trkpt><trkpt lat="44.9537464" lon="7.597202"><ele>240.0</ele><time>2026-04-23T15:00:15.639Z</time></trkpt><trkpt lat="44.9537648" lon="7.5973601"><ele>240.0</ele><time>2026-04-23T15:00:16.638Z</time></trkpt><trkpt lat="44.9537731" lon="7.5975289"><ele>239.5</ele><time>2026-04-23T15:00:17.639Z</time></trkpt><trkpt lat="44.9537625" lon="7.5976989"><ele>239.0</ele><time>2026-04-23T15:00:18.639Z</time></trkpt><trkpt lat="44.953738" lon="7.5978661"><ele>238.5</ele><time>2026-04-23T15:00:19.639Z</time></trkpt><trkpt lat="44.9536988" lon="7.5980325"><ele>238.0</ele><time>2026-04-23T15:00:20.638Z</time></trkpt><trkpt lat="44.9536416" lon="7.5981942"><ele>237.33333333333331</ele><time>2026-04-23T15:00:21.639Z</time></trkpt><trkpt lat="44.9535609" lon="7.5983482"><ele>236.66666666666669</ele><time>2026-04-23T15:00:22.64Z</time></trkpt><trkpt lat="44.9534587" lon="7.5985053"><ele>236.0</ele><time>2026-04-23T15:00:23.639Z</time></trkpt><trkpt lat="44.95333" lon="7.5986522"><ele>238.0</ele><time>2026-04-23T15:00:24.638Z</time></trkpt><trkpt lat="44.953176" lon="7.5987712"><ele>240.0</ele><time>2026-04-23T15:00:25.639Z</time></trkpt><trkpt lat="44.9530013" lon="7.5988565"><ele>242.0</ele><time>2026-04-23T15:00:26.639Z</time></trkpt><trkpt lat="44.9528079" lon="7.5989026"><ele>242.0</ele><time>2026-04-23T15:00:27.639Z</time></trkpt><trkpt lat="44.9526164" lon="7.5989031"><ele>242.0</ele><time>2026-04-23T15:00:28.641Z</time></trkpt><trkpt lat="44.9524341" lon="7.5988801"><ele>242.0</ele><time>2026-04-23T15:00:29.638Z</time></trkpt><trkpt lat="44.9522576" lon="7.5988804"><ele>241.66666666666669</ele><time>2026-04-23T15:00:30.639Z</time></trkpt><trkpt lat="44.9520926" lon="7.5989138"><ele>241.33333333333331</ele><time>2026-04-23T15:00:31.639Z</time></trkpt><trkpt lat="44.9519426" lon="7.5989884"><ele>241.0</ele><time>2026-04-23T15:00:32.638Z</time></trkpt><trkpt lat="44.9517983" lon="7.5990729"><ele>240.33333333333331</ele><time>2026-04-23T15:00:33.64Z</time></trkpt><trkpt lat="44.9516568" lon="7.5991668"><ele>239.66666666666669</ele><time>2026-04-23T15:00:34.64Z</time></trkpt><trkpt lat="44.9515088" lon="7.5992615"><ele>239.0</ele><time>2026-04-23T15:00:35.639Z</time></trkpt><trkpt lat="44.9513549" lon="7.5993647"><ele>239.0</ele><time>2026-04-23T15:00:36.638Z</time></trkpt><trkpt lat="44.9511938" lon="7.5994724"><ele>239.0</ele><time>2026-04-23T15:00:37.64Z</time></trkpt><trkpt lat="44.9510376" lon="7.5995797"><ele>239.0</ele><time>2026-04-23T15:00:38.639Z</time></trkpt><trkpt lat="44.9508803" lon="7.599683"><ele>237.66666666666669</ele><time>2026-04-23T15:00:39.639Z</time></trkpt><trkpt lat="44.9507213" lon="7.5997932"><ele>236.33333333333331</ele><time>2026-04-23T15:00:40.639Z</time></trkpt><trkpt lat="44.9505416" lon="7.5999164"><ele>235.0</ele><time>2026-04-23T15:00:41.638Z</time></trkpt><trkpt lat="44.9503357" lon="7.6000532"><ele>235.0</ele><time>2026-04-23T15:00:42.639Z</time></trkpt><trkpt lat="44.9501382" lon="7.6001787"><ele>235.0</ele><time>2026-04-23T15:00:43.638Z</time></trkpt><trkpt lat="44.9499519" lon="7.6002963"><ele>235.0</ele><time>2026-04-23T15:00:44.639Z</time></trkpt><trkpt lat="44.9497743" lon="7.6004119"><ele>235.33333333333331</ele><time>2026-04-23T15:00:45.638Z</time></trkpt><trkpt lat="44.949595" lon="7.6005323"><ele>235.66666666666669</ele><time>2026-04-23T15:00:46.639Z</time></trkpt><trkpt lat="44.9494157" lon="7.6006522"><ele>236.0</ele><time>2026-04-23T15:00:47.639Z</time></trkpt><trkpt lat="44.9492379" lon="7.6007698"><ele>236.0</ele><time>2026-04-23T15:00:48.64Z</time></trkpt><trkpt lat="44.9490414" lon="7.6009006"><ele>236.0</ele><time>2026-04-23T15:00:49.639Z</time></trkpt><trkpt lat="44.948818" lon="7.601055"><ele>236.0</ele><time>2026-04-23T15:00:50.638Z</time></trkpt><trkpt lat="44.9485731" lon="7.6012203"><ele>236.0</ele><time>2026-04-23T15:00:51.639Z</time></trkpt><trkpt lat="44.9483199" lon="7.601376"><ele>236.0</ele><time>2026-04-23T15:00:52.639Z</time></trkpt><trkpt lat="44.9480831" lon="7.6015258"><ele>236.0</ele><time>2026-04-23T15:00:53.64Z</time></trkpt><trkpt lat="44.9478593" lon="7.601672"><ele>236.0</ele><time>2026-04-23T15:00:54.638Z</time></trkpt><trkpt lat="44.9476429" lon="7.6018117"><ele>236.0</ele><time>2026-04-23T15:00:55.639Z</time></trkpt><trkpt lat="44.9474275" lon="7.6019505"><ele>235.33333333333334</ele><time>2026-04-23T15:00:56.639Z</time></trkpt><trkpt lat="44.9472229" lon="7.6020845"><ele>234.66666666666669</ele><time>2026-04-23T15:00:57.64Z</time></trkpt><trkpt lat="44.9470239" lon="7.6022163"><ele>234.0</ele><time>2026-04-23T15:00:58.639Z</time></trkpt><trkpt lat="44.9468348" lon="7.6023422"><ele>234.0</ele><time>2026-04-23T15:00:59.639Z</time></trkpt><trkpt lat="44.9466543" lon="7.6024664"><ele>234.0</ele><time>2026-04-23T15:01:00.638Z</time></trkpt><trkpt lat="44.9464755" lon="7.6025809"><ele>234.0</ele><time>2026-04-23T15:01:01.638Z</time></trkpt><trkpt lat="44.9463006" lon="7.6026955"><ele>234.0</ele><time>2026-04-23T15:01:02.638Z</time></trkpt><trkpt lat="44.9461277" lon="7.6028104"><ele>234.0</ele><time>2026-04-23T15:01:03.64Z</time></trkpt><trkpt lat="44.9459566" lon="7.6029225"><ele>234.0</ele><time>2026-04-23T15:01:04.639Z</time></trkpt><trkpt lat="44.94579" lon="7.6030371"><ele>234.33333333333331</ele><time>2026-04-23T15:01:05.639Z</time></trkpt><trkpt lat="44.9456214" lon="7.6031484"><ele>234.66666666666666</ele><time>2026-04-23T15:01:06.64Z</time></trkpt><trkpt lat="44.9454572" lon="7.6032607"><ele>235.0</ele><time>2026-04-23T15:01:07.639Z</time></trkpt><trkpt lat="44.9452922" lon="7.6033754"><ele>235.0</ele><time>2026-04-23T15:01:08.639Z</time></trkpt><trkpt lat="44.945132" lon="7.6034853"><ele>235.0</ele><time>2026-04-23T15:01:09.638Z</time></trkpt><trkpt lat="44.9449706" lon="7.603591"><ele>235.0</ele><time>2026-04-23T15:01:10.639Z</time></trkpt><trkpt lat="44.9448115" lon="7.6036963"><ele>235.0</ele><time>2026-04-23T15:01:11.638Z</time></trkpt><trkpt lat="44.9446519" lon="7.6038017"><ele>235.0</ele><time>2026-04-23T15:01:12.639Z</time></trkpt><trkpt lat="44.9444929" lon="7.6039047"><ele>235.0</ele><time>2026-04-23T15:01:13.638Z</time></trkpt><trkpt lat="44.9443363" lon="7.6040109"><ele>234.66666666666666</ele><time>2026-04-23T15:01:14.639Z</time></trkpt><trkpt lat="44.9441807" lon="7.6041152"><ele>234.33333333333331</ele><time>2026-04-23T15:01:15.639Z</time></trkpt><trkpt lat="44.9440262" lon="7.6042131"><ele>234.0</ele><time>2026-04-23T15:01:16.638Z</time></trkpt><trkpt lat="44.9438745" lon="7.6043158"><ele>234.0</ele><time>2026-04-23T15:01:17.639Z</time></trkpt><trkpt lat="44.9437306" lon="7.6044117"><ele>234.0</ele><time>2026-04-23T15:01:18.639Z</time></trkpt><trkpt lat="44.9435835" lon="7.6045047"><ele>234.0</ele><time>2026-04-23T15:01:19.638Z</time></trkpt><trkpt lat="44.9434425" lon="7.6045943"><ele>234.66666666666669</ele><time>2026-04-23T15:01:20.64Z</time></trkpt><trkpt lat="44.9433057" lon="7.6046802"><ele>235.33333333333334</ele><time>2026-04-23T15:01:21.638Z</time></trkpt><trkpt lat="44.9431678" lon="7.6047659"><ele>236.0</ele><time>2026-04-23T15:01:22.639Z</time></trkpt><trkpt lat="44.943029" lon="7.6048447"><ele>236.0</ele><time>2026-04-23T15:01:23.639Z</time></trkpt><trkpt lat="44.9428894" lon="7.6049208"><ele>236.0</ele><time>2026-04-23T15:01:24.639Z</time></trkpt><trkpt lat="44.9427521" lon="7.604989"><ele>236.0</ele><time>2026-04-23T15:01:25.639Z</time></trkpt><trkpt lat="44.9426175" lon="7.6050594"><ele>236.0</ele><time>2026-04-23T15:01:26.639Z</time></trkpt><trkpt lat="44.9424792" lon="7.6051226"><ele>235.20000000000002</ele><time>2026-04-23T15:01:27.64Z</time></trkpt><trkpt lat="44.9423505" lon="7.6051817"><ele>234.40000000000003</ele><time>2026-04-23T15:01:28.638Z</time></trkpt><trkpt lat="44.942235" lon="7.6052299"><ele>233.6</ele><time>2026-04-23T15:01:29.638Z</time></trkpt><trkpt lat="44.9421355" lon="7.6052718"><ele>232.8</ele><time>2026-04-23T15:01:30.639Z</time></trkpt><trkpt lat="44.9420536" lon="7.6053009"><ele>232.0</ele><time>2026-04-23T15:01:31.638Z</time></trkpt><trkpt lat="44.9419479" lon="7.6053229"><ele>231.99999999999997</ele><time>2026-04-23T15:01:33.64Z</time></trkpt><trkpt lat="44.9418735" lon="7.6053397"><ele>232.0</ele><time>2026-04-23T15:01:36.639Z</time></trkpt><trkpt lat="44.941868" lon="7.6054303"><ele>232.0</ele><time>2026-04-23T15:01:49.639Z</time></trkpt><trkpt lat="44.9419273" lon="7.6054995"><ele>232.0</ele><time>2026-04-23T15:01:51.638Z</time></trkpt><trkpt lat="44.9420029" lon="7.6056076"><ele>231.99999999999997</ele><time>2026-04-23T15:01:53.639Z</time></trkpt><trkpt lat="44.9420494" lon="7.6057711"><ele>232.0</ele><time>2026-04-23T15:01:55.638Z</time></trkpt><trkpt lat="44.9420522" lon="7.6059361"><ele>231.99999999999997</ele><time>2026-04-23T15:01:57.638Z</time></trkpt><trkpt lat="44.9419941" lon="7.6061064"><ele>232.0</ele><time>2026-04-23T15:01:59.64Z</time></trkpt><trkpt lat="44.941944" lon="7.606191"><ele>232.0</ele><time>2026-04-23T15:02:00.637Z</time></trkpt><trkpt lat="44.9418911" lon="7.6062724"><ele>232.0</ele><time>2026-04-23T15:02:01.639Z</time></trkpt><trkpt lat="44.941845" lon="7.606351"><ele>231.99999999999997</ele><time>2026-04-23T15:02:02.64Z</time></trkpt><trkpt lat="44.9417997" lon="7.6064281"><ele>232.0</ele><time>2026-04-23T15:02:03.638Z</time></trkpt><trkpt lat="44.9417581" lon="7.6064989"><ele>232.16666666666666</ele><time>2026-04-23T15:02:04.639Z</time></trkpt><trkpt lat="44.9417001" lon="7.6066315"><ele>232.33333333333331</ele><time>2026-04-23T15:02:06.639Z</time></trkpt><trkpt lat="44.9416941" lon="7.6067876"><ele>232.5</ele><time>2026-04-23T15:02:08.638Z</time></trkpt><trkpt lat="44.9417076" lon="7.6068745"><ele>232.66666666666669</ele><time>2026-04-23T15:02:09.639Z</time></trkpt><trkpt lat="44.9417261" lon="7.6069683"><ele>232.83333333333334</ele><time>2026-04-23T15:02:10.638Z</time></trkpt><trkpt lat="44.9417506" lon="7.607067"><ele>233.0</ele><time>2026-04-23T15:02:11.639Z</time></trkpt><trkpt lat="44.9417745" lon="7.6071615"><ele>233.50000000000003</ele><time>2026-04-23T15:02:12.638Z</time></trkpt><trkpt lat="44.9418054" lon="7.6072623"><ele>234.0</ele><time>2026-04-23T15:02:13.637Z</time></trkpt><trkpt lat="44.9418387" lon="7.6073589"><ele>234.5</ele><time>2026-04-23T15:02:14.639Z</time></trkpt><trkpt lat="44.9418753" lon="7.6074416"><ele>235.0</ele><time>2026-04-23T15:02:15.638Z</time></trkpt><trkpt lat="44.941911" lon="7.607519"><ele>235.50000000000003</ele><time>2026-04-23T15:02:16.639Z</time></trkpt><trkpt lat="44.9419956" lon="7.6076509"><ele>236.0</ele><time>2026-04-23T15:02:18.639Z</time></trkpt><trkpt lat="44.9420432" lon="7.6077115"><ele>236.00000000000003</ele><time>2026-04-23T15:02:19.639Z</time></trkpt><trkpt lat="44.9420977" lon="7.6077647"><ele>236.0</ele><time>2026-04-23T15:02:20.638Z</time></trkpt><trkpt lat="44.9421594" lon="7.6078163"><ele>236.0</ele><time>2026-04-23T15:02:21.638Z</time></trkpt><trkpt lat="44.9422293" lon="7.6078836"><ele>236.0</ele><time>2026-04-23T15:02:22.638Z</time></trkpt><trkpt lat="44.9422979" lon="7.6079553"><ele>236.00000000000003</ele><time>2026-04-23T15:02:23.64Z</time></trkpt><trkpt lat="44.9423673" lon="7.6080425"><ele>236.0</ele><time>2026-04-23T15:02:24.64Z</time></trkpt><trkpt lat="44.9424213" lon="7.6081269"><ele>235.85714285714283</ele><time>2026-04-23T15:02:25.639Z</time></trkpt><trkpt lat="44.9424727" lon="7.6082043"><ele>235.71428571428572</ele><time>2026-04-23T15:02:26.637Z</time></trkpt><trkpt lat="44.9425192" lon="7.6082839"><ele>235.57142857142856</ele><time>2026-04-23T15:02:27.638Z</time></trkpt><trkpt lat="44.9425638" lon="7.6083638"><ele>235.42857142857142</ele><time>2026-04-23T15:02:28.638Z</time></trkpt><trkpt lat="44.9426022" lon="7.6084483"><ele>235.28571428571428</ele><time>2026-04-23T15:02:29.638Z</time></trkpt><trkpt lat="44.9426345" lon="7.6085424"><ele>235.14285714285714</ele><time>2026-04-23T15:02:30.638Z</time></trkpt><trkpt lat="44.9426626" lon="7.6086285"><ele>235.0</ele><time>2026-04-23T15:02:31.639Z</time></trkpt><trkpt lat="44.9426801" lon="7.608716"><ele>234.99999999999997</ele><time>2026-04-23T15:02:32.639Z</time></trkpt><trkpt lat="44.9426836" lon="7.6088049"><ele>235.0</ele><time>2026-04-23T15:02:33.638Z</time></trkpt><trkpt lat="44.9426642" lon="7.608977"><ele>235.0</ele><time>2026-04-23T15:02:35.637Z</time></trkpt><trkpt lat="44.9426442" lon="7.6090724"><ele>235.0</ele><time>2026-04-23T15:02:36.639Z</time></trkpt><trkpt lat="44.942627" lon="7.6091612"><ele>234.99999999999997</ele><time>2026-04-23T15:02:37.639Z</time></trkpt><trkpt lat="44.9426115" lon="7.6092534"><ele>235.0</ele><time>2026-04-23T15:02:38.637Z</time></trkpt><trkpt lat="44.9425979" lon="7.6093512"><ele>234.99999999999997</ele><time>2026-04-23T15:02:39.64Z</time></trkpt><trkpt lat="44.9425887" lon="7.6094544"><ele>235.0</ele><time>2026-04-23T15:02:40.639Z</time></trkpt><trkpt lat="44.9425786" lon="7.6095651"><ele>235.0</ele><time>2026-04-23T15:02:41.638Z</time></trkpt><trkpt lat="44.9425635" lon="7.609686"><ele>235.0</ele><time>2026-04-23T15:02:42.64Z</time></trkpt><trkpt lat="44.9425465" lon="7.6098035"><ele>234.99999999999997</ele><time>2026-04-23T15:02:43.638Z</time></trkpt><trkpt lat="44.9425248" lon="7.6099137"><ele>235.0</ele><time>2026-04-23T15:02:44.639Z</time></trkpt><trkpt lat="44.9424954" lon="7.6100255"><ele>234.83333333333331</ele><time>2026-04-23T15:02:45.64Z</time></trkpt><trkpt lat="44.9424701" lon="7.6101358"><ele>234.66666666666666</ele><time>2026-04-23T15:02:46.638Z</time></trkpt><trkpt lat="44.9424389" lon="7.6102499"><ele>234.5</ele><time>2026-04-23T15:02:47.637Z</time></trkpt><trkpt lat="44.9424016" lon="7.6103707"><ele>234.33333333333331</ele><time>2026-04-23T15:02:48.639Z</time></trkpt><trkpt lat="44.9423615" lon="7.6104808"><ele>234.16666666666666</ele><time>2026-04-23T15:02:49.638Z</time></trkpt><trkpt lat="44.9423208" lon="7.6105831"><ele>234.0</ele><time>2026-04-23T15:02:50.637Z</time></trkpt><trkpt lat="44.9422782" lon="7.6106821"><ele>234.0</ele><time>2026-04-23T15:02:51.64Z</time></trkpt><trkpt lat="44.9422375" lon="7.6107786"><ele>234.0</ele><time>2026-04-23T15:02:52.638Z</time></trkpt><trkpt lat="44.9421971" lon="7.6108732"><ele>234.0</ele><time>2026-04-23T15:02:53.637Z</time></trkpt><trkpt lat="44.942159" lon="7.6109727"><ele>234.0</ele><time>2026-04-23T15:02:54.64Z</time></trkpt><trkpt lat="44.9421205" lon="7.6110677"><ele>234.0</ele><time>2026-04-23T15:02:55.638Z</time></trkpt><trkpt lat="44.942083" lon="7.61116"><ele>234.0</ele><time>2026-04-23T15:02:56.637Z</time></trkpt><trkpt lat="44.9420417" lon="7.6112533"><ele>234.33333333333334</ele><time>2026-04-23T15:02:57.638Z</time></trkpt><trkpt lat="44.9419972" lon="7.6113417"><ele>234.66666666666669</ele><time>2026-04-23T15:02:58.638Z</time></trkpt><trkpt lat="44.9419529" lon="7.6114271"><ele>235.0</ele><time>2026-04-23T15:02:59.639Z</time></trkpt><trkpt lat="44.9419146" lon="7.611506"><ele>235.33333333333334</ele><time>2026-04-23T15:03:00.637Z</time></trkpt><trkpt lat="44.9418511" lon="7.611648"><ele>235.66666666666669</ele><time>2026-04-23T15:03:02.637Z</time></trkpt><trkpt lat="44.9418225" lon="7.611792"><ele>236.0</ele><time>2026-04-23T15:03:04.638Z</time></trkpt><trkpt lat="44.9418465" lon="7.6119356"><ele>236.00000000000003</ele><time>2026-04-23T15:03:06.638Z</time></trkpt><trkpt lat="44.9419151" lon="7.6120738"><ele>236.0</ele><time>2026-04-23T15:03:08.638Z</time></trkpt><trkpt lat="44.941961" lon="7.612139"><ele>236.0</ele><time>2026-04-23T15:03:09.638Z</time></trkpt><trkpt lat="44.9420138" lon="7.6122027"><ele>236.0</ele><time>2026-04-23T15:03:10.638Z</time></trkpt><trkpt lat="44.9420741" lon="7.6122591"><ele>236.00000000000003</ele><time>2026-04-23T15:03:11.639Z</time></trkpt><trkpt lat="44.9421367" lon="7.6123232"><ele>236.0</ele><time>2026-04-23T15:03:12.637Z</time></trkpt><trkpt lat="44.9422026" lon="7.6123785"><ele>236.00000000000003</ele><time>2026-04-23T15:03:13.638Z</time></trkpt><trkpt lat="44.9422765" lon="7.6124372"><ele>236.0</ele><time>2026-04-23T15:03:14.639Z</time></trkpt><trkpt lat="44.9423463" lon="7.6124862"><ele>236.0</ele><time>2026-04-23T15:03:15.64Z</time></trkpt><trkpt lat="44.9424264" lon="7.6125302"><ele>236.0</ele><time>2026-04-23T15:03:16.637Z</time></trkpt><trkpt lat="44.9425045" lon="7.6125769"><ele>236.00000000000003</ele><time>2026-04-23T15:03:17.637Z</time></trkpt><trkpt lat="44.9425815" lon="7.6126265"><ele>236.0</ele><time>2026-04-23T15:03:18.639Z</time></trkpt><trkpt lat="44.9426504" lon="7.6126788"><ele>235.83333333333334</ele><time>2026-04-23T15:03:19.637Z</time></trkpt><trkpt lat="44.9427176" lon="7.6127326"><ele>235.66666666666669</ele><time>2026-04-23T15:03:20.639Z</time></trkpt><trkpt lat="44.942787" lon="7.6127821"><ele>235.5</ele><time>2026-04-23T15:03:21.639Z</time></trkpt><trkpt lat="44.9428523" lon="7.6128309"><ele>235.33333333333331</ele><time>2026-04-23T15:03:22.638Z</time></trkpt><trkpt lat="44.9429218" lon="7.6128846"><ele>235.16666666666666</ele><time>2026-04-23T15:03:23.638Z</time></trkpt><trkpt lat="44.9429938" lon="7.6129404"><ele>235.0</ele><time>2026-04-23T15:03:24.638Z</time></trkpt><trkpt lat="44.9430675" lon="7.6129996"><ele>234.49999999999997</ele><time>2026-04-23T15:03:25.637Z</time></trkpt><trkpt lat="44.9431362" lon="7.6130602"><ele>234.0</ele><time>2026-04-23T15:03:26.638Z</time></trkpt><trkpt lat="44.9432074" lon="7.613119"><ele>233.5</ele><time>2026-04-23T15:03:27.639Z</time></trkpt><trkpt lat="44.9432795" lon="7.6131782"><ele>233.0</ele><time>2026-04-23T15:03:28.637Z</time></trkpt><trkpt lat="44.9433494" lon="7.6132338"><ele>232.49999999999997</ele><time>2026-04-23T15:03:29.638Z</time></trkpt><trkpt lat="44.9434199" lon="7.6132895"><ele>232.0</ele><time>2026-04-23T15:03:30.639Z</time></trkpt><trkpt lat="44.9434886" lon="7.6133479"><ele>231.99999999999997</ele><time>2026-04-23T15:03:31.638Z</time></trkpt><trkpt lat="44.9435593" lon="7.6134081"><ele>232.0</ele><time>2026-04-23T15:03:32.64Z</time></trkpt><trkpt lat="44.9436278" lon="7.6134675"><ele>232.0</ele><time>2026-04-23T15:03:33.638Z</time></trkpt><trkpt lat="44.9436971" lon="7.6135206"><ele>232.0</ele><time>2026-04-23T15:03:34.639Z</time></trkpt><trkpt lat="44.9437636" lon="7.6135728"><ele>231.99999999999997</ele><time>2026-04-23T15:03:35.639Z</time></trkpt><trkpt lat="44.9438246" lon="7.6136217"><ele>232.0</ele><time>2026-04-23T15:03:36.64Z</time></trkpt><trkpt lat="44.9438868" lon="7.6136732"><ele>232.0</ele><time>2026-04-23T15:03:37.639Z</time></trkpt><trkpt lat="44.9439449" lon="7.6137201"><ele>232.0</ele><time>2026-04-23T15:03:38.638Z</time></trkpt><trkpt lat="44.9440556" lon="7.6137854"><ele>232.0</ele><time>2026-04-23T15:03:40.637Z</time></trkpt><trkpt lat="44.9441777" lon="7.6138067"><ele>232.0</ele><time>2026-04-23T15:03:42.638Z</time></trkpt><trkpt lat="44.9442574" lon="7.6138114"><ele>232.0</ele><time>2026-04-23T15:03:43.639Z</time></trkpt><trkpt lat="44.944337" lon="7.6138075"><ele>231.99999999999997</ele><time>2026-04-23T15:03:44.639Z</time></trkpt><trkpt lat="44.9444122" lon="7.6138"><ele>232.0</ele><time>2026-04-23T15:03:45.639Z</time></trkpt><trkpt lat="44.9444888" lon="7.6137844"><ele>232.0</ele><time>2026-04-23T15:03:46.637Z</time></trkpt><trkpt lat="44.9445635" lon="7.6137716"><ele>232.0</ele><time>2026-04-23T15:03:47.638Z</time></trkpt><trkpt lat="44.9446446" lon="7.6137654"><ele>231.99999999999997</ele><time>2026-04-23T15:03:48.638Z</time></trkpt><trkpt lat="44.9447241" lon="7.6137568"><ele>232.0</ele><time>2026-04-23T15:03:49.638Z</time></trkpt><trkpt lat="44.9447956" lon="7.6137475"><ele>232.00000000000003</ele><time>2026-04-23T15:03:50.639Z</time></trkpt><trkpt lat="44.9448647" lon="7.6137397"><ele>232.0</ele><time>2026-04-23T15:03:51.639Z</time></trkpt><trkpt lat="44.944928" lon="7.6137326"><ele>232.00000000000003</ele><time>2026-04-23T15:03:52.637Z</time></trkpt><trkpt lat="44.9449938" lon="7.613729"><ele>232.00000000000003</ele><time>2026-04-23T15:03:53.638Z</time></trkpt><trkpt lat="44.9450964" lon="7.6137281"><ele>232.0</ele><time>2026-04-23T15:03:55.637Z</time></trkpt><trkpt lat="44.9451703" lon="7.6137407"><ele>232.00000000000003</ele><time>2026-04-23T15:03:57.638Z</time></trkpt><trkpt lat="44.9452195" lon="7.6138095"><ele>232.00000000000003</ele><time>2026-04-23T15:03:59.638Z</time></trkpt><trkpt lat="44.9452449" lon="7.6139387"><ele>232.0</ele><time>2026-04-23T15:04:01.639Z</time></trkpt><trkpt lat="44.9452694" lon="7.6141078"><ele>232.0</ele><time>2026-04-23T15:04:03.638Z</time></trkpt><trkpt lat="44.9452857" lon="7.6142366"><ele>232.0</ele><time>2026-04-23T15:04:04.638Z</time></trkpt><trkpt lat="44.9453005" lon="7.6143572"><ele>232.0</ele><time>2026-04-23T15:04:05.638Z</time></trkpt><trkpt lat="44.9453139" lon="7.6144771"><ele>232.0</ele><time>2026-04-23T15:04:06.637Z</time></trkpt><trkpt lat="44.9453236" lon="7.6145909"><ele>231.8571428571429</ele><time>2026-04-23T15:04:07.637Z</time></trkpt><trkpt lat="44.945338" lon="7.6146915"><ele>231.71428571428572</ele><time>2026-04-23T15:04:08.638Z</time></trkpt><trkpt lat="44.9453541" lon="7.6147956"><ele>231.57142857142858</ele><time>2026-04-23T15:04:09.64Z</time></trkpt><trkpt lat="44.9453737" lon="7.6148953"><ele>231.42857142857144</ele><time>2026-04-23T15:04:10.639Z</time></trkpt><trkpt lat="44.9453949" lon="7.6149948"><ele>231.28571428571428</ele><time>2026-04-23T15:04:11.637Z</time></trkpt><trkpt lat="44.9454168" lon="7.6150899"><ele>231.14285714285714</ele><time>2026-04-23T15:04:12.637Z</time></trkpt><trkpt lat="44.9454486" lon="7.6151721"><ele>231.0</ele><time>2026-04-23T15:04:13.64Z</time></trkpt><trkpt lat="44.9454811" lon="7.61525"><ele>231.0</ele><time>2026-04-23T15:04:14.637Z</time></trkpt><trkpt lat="44.9455459" lon="7.6153013"><ele>231.0</ele><time>2026-04-23T15:04:15.637Z</time></trkpt><trkpt lat="44.9456353" lon="7.6153513"><ele>231.0</ele><time>2026-04-23T15:04:16.638Z</time></trkpt><trkpt lat="44.945723" lon="7.6153907"><ele>231.0</ele><time>2026-04-23T15:04:17.64Z</time></trkpt><trkpt lat="44.9458056" lon="7.6154305"><ele>231.0</ele><time>2026-04-23T15:04:18.638Z</time></trkpt><trkpt lat="44.9458845" lon="7.6154754"><ele>231.0</ele><time>2026-04-23T15:04:19.638Z</time></trkpt><trkpt lat="44.9459502" lon="7.6155355"><ele>230.83333333333334</ele><time>2026-04-23T15:04:20.638Z</time></trkpt><trkpt lat="44.9460051" lon="7.6156117"><ele>230.66666666666669</ele><time>2026-04-23T15:04:21.638Z</time></trkpt><trkpt lat="44.9460581" lon="7.615688"><ele>230.5</ele><time>2026-04-23T15:04:22.638Z</time></trkpt><trkpt lat="44.9461035" lon="7.6157731"><ele>230.33333333333334</ele><time>2026-04-23T15:04:23.637Z</time></trkpt><trkpt lat="44.9461416" lon="7.615872"><ele>230.16666666666669</ele><time>2026-04-23T15:04:24.639Z</time></trkpt><trkpt lat="44.9461711" lon="7.6159667"><ele>230.0</ele><time>2026-04-23T15:04:25.639Z</time></trkpt><trkpt lat="44.9461895" lon="7.6160678"><ele>230.16666666666669</ele><time>2026-04-23T15:04:26.639Z</time></trkpt><trkpt lat="44.9461988" lon="7.616174"><ele>230.33333333333334</ele><time>2026-04-23T15:04:27.638Z</time></trkpt><trkpt lat="44.9462017" lon="7.6162963"><ele>230.5</ele><time>2026-04-23T15:04:28.638Z</time></trkpt><trkpt lat="44.9461938" lon="7.6164231"><ele>230.66666666666669</ele><time>2026-04-23T15:04:29.638Z</time></trkpt><trkpt lat="44.9461841" lon="7.6165528"><ele>230.83333333333334</ele><time>2026-04-23T15:04:30.638Z</time></trkpt><trkpt lat="44.9461741" lon="7.6166875"><ele>231.0</ele><time>2026-04-23T15:04:31.64Z</time></trkpt><trkpt lat="44.9461646" lon="7.6168192"><ele>231.0</ele><time>2026-04-23T15:04:32.637Z</time></trkpt><trkpt lat="44.9461529" lon="7.6169485"><ele>231.00000000000003</ele><time>2026-04-23T15:04:33.638Z</time></trkpt><trkpt lat="44.9461337" lon="7.6170815"><ele>231.00000000000003</ele><time>2026-04-23T15:04:34.638Z</time></trkpt><trkpt lat="44.9461012" lon="7.617215"><ele>231.0</ele><time>2026-04-23T15:04:35.638Z</time></trkpt><trkpt lat="44.9460664" lon="7.6173453"><ele>231.0</ele><time>2026-04-23T15:04:36.639Z</time></trkpt><trkpt lat="44.946028" lon="7.6174649"><ele>231.0</ele><time>2026-04-23T15:04:37.637Z</time></trkpt><trkpt lat="44.9459735" lon="7.6176025"><ele>231.0</ele><time>2026-04-23T15:04:38.639Z</time></trkpt><trkpt lat="44.9459192" lon="7.6177168"><ele>231.0</ele><time>2026-04-23T15:04:39.638Z</time></trkpt><trkpt lat="44.9458645" lon="7.6178169"><ele>231.0</ele><time>2026-04-23T15:04:40.639Z</time></trkpt><trkpt lat="44.9458241" lon="7.6179101"><ele>231.0</ele><time>2026-04-23T15:04:41.638Z</time></trkpt><trkpt lat="44.9457958" lon="7.6180038"><ele>231.0</ele><time>2026-04-23T15:04:42.639Z</time></trkpt><trkpt lat="44.9457837" lon="7.6180966"><ele>231.0</ele><time>2026-04-23T15:04:43.638Z</time></trkpt><trkpt lat="44.9457906" lon="7.6181863"><ele>231.0</ele><time>2026-04-23T15:04:44.638Z</time></trkpt><trkpt lat="44.9458161" lon="7.6182802"><ele>231.0</ele><time>2026-04-23T15:04:45.639Z</time></trkpt><trkpt lat="44.9458584" lon="7.6183773"><ele>231.0</ele><time>2026-04-23T15:04:46.638Z</time></trkpt><trkpt lat="44.9459141" lon="7.6184756"><ele>231.0</ele><time>2026-04-23T15:04:47.639Z</time></trkpt><trkpt lat="44.9459772" lon="7.6185774"><ele>231.0</ele><time>2026-04-23T15:04:48.638Z</time></trkpt><trkpt lat="44.946044" lon="7.6186795"><ele>231.0</ele><time>2026-04-23T15:04:49.637Z</time></trkpt><trkpt lat="44.9461269" lon="7.6187676"><ele>231.0</ele><time>2026-04-23T15:04:50.637Z</time></trkpt><trkpt lat="44.9462271" lon="7.6188401"><ele>231.0</ele><time>2026-04-23T15:04:51.639Z</time></trkpt><trkpt lat="44.9463559" lon="7.6189107"><ele>231.0</ele><time>2026-04-23T15:04:52.638Z</time></trkpt><trkpt lat="44.9465008" lon="7.6189935"><ele>231.0</ele><time>2026-04-23T15:04:53.639Z</time></trkpt><trkpt lat="44.9466499" lon="7.6190782"><ele>231.0</ele><time>2026-04-23T15:04:54.637Z</time></trkpt><trkpt lat="44.9467992" lon="7.6191555"><ele>231.0</ele><time>2026-04-23T15:04:55.638Z</time></trkpt><trkpt lat="44.9469465" lon="7.619237"><ele>230.5</ele><time>2026-04-23T15:04:56.637Z</time></trkpt><trkpt lat="44.9470835" lon="7.6193072"><ele>230.0</ele><time>2026-04-23T15:04:57.637Z</time></trkpt><trkpt lat="44.9472097" lon="7.6193725"><ele>229.5</ele><time>2026-04-23T15:04:58.638Z</time></trkpt><trkpt lat="44.9473292" lon="7.6194368"><ele>229.0</ele><time>2026-04-23T15:04:59.637Z</time></trkpt><trkpt lat="44.9474509" lon="7.6194989"><ele>229.5</ele><time>2026-04-23T15:05:00.639Z</time></trkpt><trkpt lat="44.9475745" lon="7.6195636"><ele>230.0</ele><time>2026-04-23T15:05:01.638Z</time></trkpt><trkpt lat="44.947692" lon="7.6196288"><ele>230.5</ele><time>2026-04-23T15:05:02.637Z</time></trkpt><trkpt lat="44.9478055" lon="7.6196854"><ele>231.0</ele><time>2026-04-23T15:05:03.638Z</time></trkpt><trkpt lat="44.9479125" lon="7.6197426"><ele>231.0</ele><time>2026-04-23T15:05:04.637Z</time></trkpt><trkpt lat="44.9480163" lon="7.6198003"><ele>231.00000000000003</ele><time>2026-04-23T15:05:05.637Z</time></trkpt><trkpt lat="44.9481171" lon="7.619852"><ele>231.00000000000003</ele><time>2026-04-23T15:05:06.637Z</time></trkpt><trkpt lat="44.9482147" lon="7.619904"><ele>231.0</ele><time>2026-04-23T15:05:07.638Z</time></trkpt><trkpt lat="44.948317" lon="7.6199577"><ele>231.0</ele><time>2026-04-23T15:05:08.638Z</time></trkpt><trkpt lat="44.9484179" lon="7.6200166"><ele>230.8</ele><time>2026-04-23T15:05:09.639Z</time></trkpt><trkpt lat="44.9485204" lon="7.620075"><ele>230.60000000000002</ele><time>2026-04-23T15:05:10.637Z</time></trkpt><trkpt lat="44.9486205" lon="7.620123"><ele>230.4</ele><time>2026-04-23T15:05:11.637Z</time></trkpt><trkpt lat="44.9487188" lon="7.6201755"><ele>230.2</ele><time>2026-04-23T15:05:12.637Z</time></trkpt><trkpt lat="44.9488155" lon="7.620225"><ele>230.0</ele><time>2026-04-23T15:05:13.638Z</time></trkpt><trkpt lat="44.9489108" lon="7.6202646"><ele>229.8</ele><time>2026-04-23T15:05:14.639Z</time></trkpt><trkpt lat="44.949001" lon="7.6203198"><ele>229.6</ele><time>2026-04-23T15:05:15.637Z</time></trkpt><trkpt lat="44.9490951" lon="7.6203696"><ele>229.39999999999998</ele><time>2026-04-23T15:05:16.637Z</time></trkpt><trkpt lat="44.9491835" lon="7.6204174"><ele>229.2</ele><time>2026-04-23T15:05:17.638Z</time></trkpt><trkpt lat="44.9492676" lon="7.6204726"><ele>229.0</ele><time>2026-04-23T15:05:18.638Z</time></trkpt><trkpt lat="44.9493472" lon="7.6205171"><ele>229.49999999999997</ele><time>2026-04-23T15:05:19.639Z</time></trkpt><trkpt lat="44.9494195" lon="7.6205571"><ele>230.0</ele><time>2026-04-23T15:05:20.639Z</time></trkpt><trkpt lat="44.9494837" lon="7.620589"><ele>230.5</ele><time>2026-04-23T15:05:21.638Z</time></trkpt><trkpt lat="44.9495507" lon="7.6206585"><ele>231.0</ele><time>2026-04-23T15:05:23.638Z</time></trkpt><trkpt lat="44.9495513" lon="7.6207663"><ele>231.49999999999997</ele><time>2026-04-23T15:05:26.638Z</time></trkpt><trkpt lat="44.9495169" lon="7.6208882"><ele>232.0</ele><time>2026-04-23T15:05:28.637Z</time></trkpt><trkpt lat="44.9494961" lon="7.6209767"><ele>232.0</ele><time>2026-04-23T15:05:29.638Z</time></trkpt><trkpt lat="44.9494699" lon="7.621082"><ele>232.0</ele><time>2026-04-23T15:05:30.638Z</time></trkpt><trkpt lat="44.9494371" lon="7.6212068"><ele>232.0</ele><time>2026-04-23T15:05:31.639Z</time></trkpt><trkpt lat="44.9494042" lon="7.6213462"><ele>232.0</ele><time>2026-04-23T15:05:32.637Z</time></trkpt><trkpt lat="44.9493709" lon="7.6214943"><ele>232.0</ele><time>2026-04-23T15:05:33.639Z</time></trkpt><trkpt lat="44.9493367" lon="7.6216421"><ele>232.2</ele><time>2026-04-23T15:05:34.638Z</time></trkpt><trkpt lat="44.9493043" lon="7.621787"><ele>232.39999999999998</ele><time>2026-04-23T15:05:35.637Z</time></trkpt><trkpt lat="44.9492706" lon="7.6219353"><ele>232.60000000000002</ele><time>2026-04-23T15:05:36.638Z</time></trkpt><trkpt lat="44.949229" lon="7.6220836"><ele>232.8</ele><time>2026-04-23T15:05:37.637Z</time></trkpt><trkpt lat="44.9491856" lon="7.6222265"><ele>233.0</ele><time>2026-04-23T15:05:38.639Z</time></trkpt><trkpt lat="44.9491402" lon="7.6223663"><ele>232.4</ele><time>2026-04-23T15:05:39.638Z</time></trkpt><trkpt lat="44.9490992" lon="7.6224956"><ele>231.8</ele><time>2026-04-23T15:05:40.638Z</time></trkpt><trkpt lat="44.949056" lon="7.6226314"><ele>231.2</ele><time>2026-04-23T15:05:41.638Z</time></trkpt><trkpt lat="44.9490152" lon="7.6227734"><ele>230.6</ele><time>2026-04-23T15:05:42.638Z</time></trkpt><trkpt lat="44.9489751" lon="7.622913"><ele>230.0</ele><time>2026-04-23T15:05:43.637Z</time></trkpt><trkpt lat="44.9489328" lon="7.623061"><ele>229.5</ele><time>2026-04-23T15:05:44.638Z</time></trkpt><trkpt lat="44.9488874" lon="7.6232046"><ele>229.0</ele><time>2026-04-23T15:05:45.637Z</time></trkpt><trkpt lat="44.948842" lon="7.6233539"><ele>228.5</ele><time>2026-04-23T15:05:46.638Z</time></trkpt><trkpt lat="44.9487976" lon="7.6234987"><ele>228.0</ele><time>2026-04-23T15:05:47.639Z</time></trkpt><trkpt lat="44.9487502" lon="7.6236443"><ele>228.2</ele><time>2026-04-23T15:05:48.637Z</time></trkpt><trkpt lat="44.9487038" lon="7.6237872"><ele>228.4</ele><time>2026-04-23T15:05:49.639Z</time></trkpt><trkpt lat="44.9486569" lon="7.6239261"><ele>228.59999999999997</ele><time>2026-04-23T15:05:50.638Z</time></trkpt><trkpt lat="44.9486149" lon="7.6240466"><ele>228.79999999999998</ele><time>2026-04-23T15:05:51.637Z</time></trkpt><trkpt lat="44.9485757" lon="7.624155"><ele>229.0</ele><time>2026-04-23T15:05:52.638Z</time></trkpt><trkpt lat="44.9485407" lon="7.6242544"><ele>229.0</ele><time>2026-04-23T15:05:53.639Z</time></trkpt><trkpt lat="44.9485144" lon="7.6243383"><ele>228.99999999999997</ele><time>2026-04-23T15:05:54.638Z</time></trkpt><trkpt lat="44.9484688" lon="7.6244791"><ele>228.99999999999997</ele><time>2026-04-23T15:05:56.638Z</time></trkpt><trkpt lat="44.948463" lon="7.6246261"><ele>229.0</ele><time>2026-04-23T15:05:58.638Z</time></trkpt><trkpt lat="44.9485223" lon="7.6247554"><ele>229.0</ele><time>2026-04-23T15:06:00.638Z</time></trkpt><trkpt lat="44.9486364" lon="7.6248294"><ele>229.16666666666666</ele><time>2026-04-23T15:06:02.638Z</time></trkpt><trkpt lat="44.9487074" lon="7.6248561"><ele>229.33333333333331</ele><time>2026-04-23T15:06:03.638Z</time></trkpt><trkpt lat="44.948777" lon="7.6248832"><ele>229.5</ele><time>2026-04-23T15:06:04.638Z</time></trkpt><trkpt lat="44.9488545" lon="7.6249144"><ele>229.66666666666669</ele><time>2026-04-23T15:06:05.638Z</time></trkpt><trkpt lat="44.9489366" lon="7.6249349"><ele>229.83333333333334</ele><time>2026-04-23T15:06:06.637Z</time></trkpt><trkpt lat="44.9490159" lon="7.6249582"><ele>230.0</ele><time>2026-04-23T15:06:07.637Z</time></trkpt><trkpt lat="44.9490976" lon="7.6249807"><ele>230.00000000000003</ele><time>2026-04-23T15:06:08.638Z</time></trkpt><trkpt lat="44.9491821" lon="7.6250011"><ele>230.0</ele><time>2026-04-23T15:06:09.637Z</time></trkpt><trkpt lat="44.9492657" lon="7.6250189"><ele>230.0</ele><time>2026-04-23T15:06:10.638Z</time></trkpt><trkpt lat="44.9493508" lon="7.625047"><ele>230.0</ele><time>2026-04-23T15:06:11.637Z</time></trkpt><trkpt lat="44.9494342" lon="7.6250683"><ele>230.00000000000003</ele><time>2026-04-23T15:06:12.637Z</time></trkpt><trkpt lat="44.9495192" lon="7.6250982"><ele>230.0</ele><time>2026-04-23T15:06:13.638Z</time></trkpt><trkpt lat="44.9496075" lon="7.6251208"><ele>230.00000000000003</ele><time>2026-04-23T15:06:14.637Z</time></trkpt><trkpt lat="44.9496917" lon="7.6251456"><ele>230.0</ele><time>2026-04-23T15:06:15.638Z</time></trkpt><trkpt lat="44.9497733" lon="7.6251748"><ele>230.0</ele><time>2026-04-23T15:06:16.638Z</time></trkpt><trkpt lat="44.9498545" lon="7.6251972"><ele>230.0</ele><time>2026-04-23T15:06:17.638Z</time></trkpt><trkpt lat="44.9499342" lon="7.6252161"><ele>230.00000000000003</ele><time>2026-04-23T15:06:18.637Z</time></trkpt><trkpt lat="44.950003" lon="7.6252473"><ele>230.0</ele><time>2026-04-23T15:06:19.638Z</time></trkpt><trkpt lat="44.9500661" lon="7.6252975"><ele>229.83333333333334</ele><time>2026-04-23T15:06:20.637Z</time></trkpt><trkpt lat="44.950123" lon="7.6253482"><ele>229.66666666666669</ele><time>2026-04-23T15:06:21.638Z</time></trkpt><trkpt lat="44.9501682" lon="7.6254119"><ele>229.5</ele><time>2026-04-23T15:06:22.637Z</time></trkpt><trkpt lat="44.950238" lon="7.6255258"><ele>229.33333333333331</ele><time>2026-04-23T15:06:24.637Z</time></trkpt><trkpt lat="44.9502893" lon="7.625593"><ele>229.16666666666666</ele><time>2026-04-23T15:06:26.637Z</time></trkpt><trkpt lat="44.9503567" lon="7.6255983"><ele>229.0</ele><time>2026-04-23T15:06:28.637Z</time></trkpt><trkpt lat="44.9504653" lon="7.6255898"><ele>228.99999999999997</ele><time>2026-04-23T15:06:30.638Z</time></trkpt><trkpt lat="44.9505374" lon="7.6256037"><ele>229.0</ele><time>2026-04-23T15:06:31.638Z</time></trkpt><trkpt lat="44.9506212" lon="7.6256211"><ele>229.0</ele><time>2026-04-23T15:06:32.637Z</time></trkpt><trkpt lat="44.9507029" lon="7.6256381"><ele>229.0</ele><time>2026-04-23T15:06:33.637Z</time></trkpt><trkpt lat="44.950789" lon="7.6256583"><ele>228.99999999999997</ele><time>2026-04-23T15:06:34.638Z</time></trkpt><trkpt lat="44.9508887" lon="7.6256796"><ele>229.0</ele><time>2026-04-23T15:06:35.638Z</time></trkpt><trkpt lat="44.9510001" lon="7.6256997"><ele>228.5</ele><time>2026-04-23T15:06:36.638Z</time></trkpt><trkpt lat="44.9511189" lon="7.6257312"><ele>228.0</ele><time>2026-04-23T15:06:37.638Z</time></trkpt><trkpt lat="44.9512447" lon="7.6257563"><ele>227.5</ele><time>2026-04-23T15:06:38.638Z</time></trkpt><trkpt lat="44.9513847" lon="7.625788"><ele>227.0</ele><time>2026-04-23T15:06:39.637Z</time></trkpt><trkpt lat="44.9515198" lon="7.6258307"><ele>227.0</ele><time>2026-04-23T15:06:40.638Z</time></trkpt><trkpt lat="44.9516428" lon="7.6258916"><ele>227.0</ele><time>2026-04-23T15:06:41.638Z</time></trkpt><trkpt lat="44.9517671" lon="7.6259589"><ele>227.0</ele><time>2026-04-23T15:06:42.638Z</time></trkpt><trkpt lat="44.9518883" lon="7.6260393"><ele>227.0</ele><time>2026-04-23T15:06:43.637Z</time></trkpt><trkpt lat="44.9520032" lon="7.6261323"><ele>228.0</ele><time>2026-04-23T15:06:44.639Z</time></trkpt><trkpt lat="44.9521137" lon="7.6262314"><ele>229.0</ele><time>2026-04-23T15:06:45.638Z</time></trkpt><trkpt lat="44.9522183" lon="7.6263441"><ele>230.0</ele><time>2026-04-23T15:06:46.638Z</time></trkpt><trkpt lat="44.952317" lon="7.6264669"><ele>231.0</ele><time>2026-04-23T15:06:47.638Z</time></trkpt><trkpt lat="44.95241" lon="7.6265962"><ele>231.0</ele><time>2026-04-23T15:06:48.638Z</time></trkpt><trkpt lat="44.9524921" lon="7.6267327"><ele>231.0</ele><time>2026-04-23T15:06:49.638Z</time></trkpt><trkpt lat="44.9525691" lon="7.6268721"><ele>231.0</ele><time>2026-04-23T15:06:50.637Z</time></trkpt><trkpt lat="44.9526329" lon="7.6269934"><ele>231.0</ele><time>2026-04-23T15:06:51.637Z</time></trkpt><trkpt lat="44.9526931" lon="7.627105"><ele>231.16666666666666</ele><time>2026-04-23T15:06:52.637Z</time></trkpt><trkpt lat="44.9527411" lon="7.6272123"><ele>231.33333333333331</ele><time>2026-04-23T15:06:53.637Z</time></trkpt><trkpt lat="44.9527897" lon="7.6273124"><ele>231.5</ele><time>2026-04-23T15:06:54.637Z</time></trkpt><trkpt lat="44.9528323" lon="7.627404"><ele>231.66666666666666</ele><time>2026-04-23T15:06:55.638Z</time></trkpt><trkpt lat="44.9528727" lon="7.6274835"><ele>231.83333333333331</ele><time>2026-04-23T15:06:56.638Z</time></trkpt><trkpt lat="44.9529142" lon="7.6276393"><ele>232.0</ele><time>2026-04-23T15:06:58.639Z</time></trkpt><trkpt lat="44.9528734" lon="7.6277799"><ele>231.6</ele><time>2026-04-23T15:07:00.636Z</time></trkpt><trkpt lat="44.9527729" lon="7.627859"><ele>231.2</ele><time>2026-04-23T15:07:02.637Z</time></trkpt><trkpt lat="44.9527097" lon="7.6278947"><ele>230.8</ele><time>2026-04-23T15:07:03.638Z</time></trkpt><trkpt lat="44.952633" lon="7.6279357"><ele>230.4</ele><time>2026-04-23T15:07:04.636Z</time></trkpt><trkpt lat="44.9525439" lon="7.6279832"><ele>230.0</ele><time>2026-04-23T15:07:05.637Z</time></trkpt><trkpt lat="44.9524467" lon="7.6280382"><ele>229.66666666666669</ele><time>2026-04-23T15:07:06.637Z</time></trkpt><trkpt lat="44.9523502" lon="7.6280923"><ele>229.33333333333334</ele><time>2026-04-23T15:07:07.638Z</time></trkpt><trkpt lat="44.9522644" lon="7.6281496"><ele>229.0</ele><time>2026-04-23T15:07:08.637Z</time></trkpt><trkpt lat="44.9521909" lon="7.6282061"><ele>228.66666666666669</ele><time>2026-04-23T15:07:09.638Z</time></trkpt><trkpt lat="44.9521361" lon="7.6282602"><ele>228.33333333333334</ele><time>2026-04-23T15:07:10.637Z</time></trkpt><trkpt lat="44.952073" lon="7.6283327"><ele>228.0</ele><time>2026-04-23T15:07:12.637Z</time></trkpt><trkpt lat="44.9520079" lon="7.6283818"><ele>228.0</ele><time>2026-04-23T15:07:15.639Z</time></trkpt><trkpt lat="44.9519205" lon="7.6284426"><ele>228.0</ele><time>2026-04-23T15:07:17.638Z</time></trkpt><trkpt lat="44.9518756" lon="7.6285688"><ele>228.0</ele><time>2026-04-23T15:07:19.639Z</time></trkpt><trkpt lat="44.9519222" lon="7.6287004"><ele>228.0</ele><time>2026-04-23T15:07:21.637Z</time></trkpt><trkpt lat="44.9520256" lon="7.6287123"><ele>228.0</ele><time>2026-04-23T15:07:23.637Z</time></trkpt><trkpt lat="44.9521082" lon="7.628585"><ele>228.0</ele><time>2026-04-23T15:07:25.638Z</time></trkpt><trkpt lat="44.9521484" lon="7.6285026"><ele>228.0</ele><time>2026-04-23T15:07:26.639Z</time></trkpt><trkpt lat="44.952195" lon="7.6284107"><ele>228.0</ele><time>2026-04-23T15:07:27.637Z</time></trkpt><trkpt lat="44.9522543" lon="7.6283168"><ele>228.0</ele><time>2026-04-23T15:07:28.638Z</time></trkpt><trkpt lat="44.9523245" lon="7.6282273"><ele>228.0</ele><time>2026-04-23T15:07:29.636Z</time></trkpt><trkpt lat="44.9524108" lon="7.6281562"><ele>228.0</ele><time>2026-04-23T15:07:30.639Z</time></trkpt><trkpt lat="44.9525148" lon="7.6281018"><ele>228.5</ele><time>2026-04-23T15:07:31.639Z</time></trkpt><trkpt lat="44.9526278" lon="7.6280418"><ele>229.0</ele><time>2026-04-23T15:07:32.637Z</time></trkpt><trkpt lat="44.9527397" lon="7.6279804"><ele>229.5</ele><time>2026-04-23T15:07:33.637Z</time></trkpt><trkpt lat="44.9528597" lon="7.6279122"><ele>230.0</ele><time>2026-04-23T15:07:34.638Z</time></trkpt><trkpt lat="44.9529816" lon="7.6278471"><ele>230.2</ele><time>2026-04-23T15:07:35.638Z</time></trkpt><trkpt lat="44.9530937" lon="7.6277854"><ele>230.4</ele><time>2026-04-23T15:07:36.636Z</time></trkpt><trkpt lat="44.9531875" lon="7.6277343"><ele>230.60000000000002</ele><time>2026-04-23T15:07:37.638Z</time></trkpt><trkpt lat="44.9532654" lon="7.6276914"><ele>230.8</ele><time>2026-04-23T15:07:38.637Z</time></trkpt><trkpt lat="44.9533318" lon="7.6276612"><ele>231.0</ele><time>2026-04-23T15:07:39.638Z</time></trkpt><trkpt lat="44.9534315" lon="7.627638"><ele>231.0</ele><time>2026-04-23T15:07:41.638Z</time></trkpt><trkpt lat="44.9535252" lon="7.627698"><ele>231.00000000000003</ele><time>2026-04-23T15:07:43.639Z</time></trkpt><trkpt lat="44.9536095" lon="7.6278551"><ele>231.00000000000003</ele><time>2026-04-23T15:07:45.637Z</time></trkpt><trkpt lat="44.9536588" lon="7.6279615"><ele>231.0</ele><time>2026-04-23T15:07:46.636Z</time></trkpt><trkpt lat="44.9537113" lon="7.6280925"><ele>231.0</ele><time>2026-04-23T15:07:47.637Z</time></trkpt><trkpt lat="44.9537665" lon="7.6282379"><ele>230.5</ele><time>2026-04-23T15:07:48.637Z</time></trkpt><trkpt lat="44.9538222" lon="7.6284075"><ele>230.0</ele><time>2026-04-23T15:07:49.638Z</time></trkpt><trkpt lat="44.953877" lon="7.6285898"><ele>229.5</ele><time>2026-04-23T15:07:50.637Z</time></trkpt><trkpt lat="44.9539379" lon="7.6287825"><ele>229.0</ele><time>2026-04-23T15:07:51.637Z</time></trkpt><trkpt lat="44.9540046" lon="7.6289767"><ele>228.66666666666666</ele><time>2026-04-23T15:07:52.637Z</time></trkpt><trkpt lat="44.9540788" lon="7.6291588"><ele>228.33333333333331</ele><time>2026-04-23T15:07:53.638Z</time></trkpt><trkpt lat="44.9541671" lon="7.6293373"><ele>228.0</ele><time>2026-04-23T15:07:54.638Z</time></trkpt><trkpt lat="44.9542705" lon="7.6295079"><ele>227.66666666666669</ele><time>2026-04-23T15:07:55.639Z</time></trkpt><trkpt lat="44.9543923" lon="7.6296621"><ele>227.33333333333334</ele><time>2026-04-23T15:07:56.637Z</time></trkpt><trkpt lat="44.9545239" lon="7.6298062"><ele>227.0</ele><time>2026-04-23T15:07:57.636Z</time></trkpt><trkpt lat="44.9546729" lon="7.6299352"><ele>227.0</ele><time>2026-04-23T15:07:58.638Z</time></trkpt><trkpt lat="44.9548381" lon="7.6300518"><ele>227.0</ele><time>2026-04-23T15:07:59.636Z</time></trkpt><trkpt lat="44.9550086" lon="7.6301554"><ele>227.0</ele><time>2026-04-23T15:08:00.636Z</time></trkpt><trkpt lat="44.955186" lon="7.6302625"><ele>227.0</ele><time>2026-04-23T15:08:01.636Z</time></trkpt><trkpt lat="44.9553525" lon="7.6303939"><ele>227.0</ele><time>2026-04-23T15:08:02.636Z</time></trkpt><trkpt lat="44.9555063" lon="7.630562"><ele>227.0</ele><time>2026-04-23T15:08:03.636Z</time></trkpt><trkpt lat="44.9556474" lon="7.6307425"><ele>227.0</ele><time>2026-04-23T15:08:04.637Z</time></trkpt><trkpt lat="44.9558012" lon="7.6309067"><ele>227.0</ele><time>2026-04-23T15:08:05.637Z</time></trkpt><trkpt lat="44.9559522" lon="7.6310621"><ele>227.0</ele><time>2026-04-23T15:08:06.638Z</time></trkpt><trkpt lat="44.9560769" lon="7.6312389"><ele>228.0</ele><time>2026-04-23T15:08:07.637Z</time></trkpt><trkpt lat="44.9561739" lon="7.631441"><ele>229.0</ele><time>2026-04-23T15:08:08.636Z</time></trkpt><trkpt lat="44.956257" lon="7.6316594"><ele>230.0</ele><time>2026-04-23T15:08:09.638Z</time></trkpt><trkpt lat="44.9563402" lon="7.6318812"><ele>229.66666666666669</ele><time>2026-04-23T15:08:10.638Z</time></trkpt><trkpt lat="44.9564287" lon="7.6320827"><ele>229.33333333333331</ele><time>2026-04-23T15:08:11.638Z</time></trkpt><trkpt lat="44.956521" lon="7.6322629"><ele>229.0</ele><time>2026-04-23T15:08:12.638Z</time></trkpt><trkpt lat="44.9566366" lon="7.6324023"><ele>229.0</ele><time>2026-04-23T15:08:13.637Z</time></trkpt><trkpt lat="44.956765" lon="7.6325016"><ele>229.0</ele><time>2026-04-23T15:08:14.638Z</time></trkpt><trkpt lat="44.9569197" lon="7.6325158"><ele>229.0</ele><time>2026-04-23T15:08:15.637Z</time></trkpt><trkpt lat="44.95707" lon="7.632488"><ele>229.0</ele><time>2026-04-23T15:08:16.638Z</time></trkpt><trkpt lat="44.9572188" lon="7.6324234"><ele>229.0</ele><time>2026-04-23T15:08:17.637Z</time></trkpt><trkpt lat="44.9573753" lon="7.6323591"><ele>229.0</ele><time>2026-04-23T15:08:18.638Z</time></trkpt><trkpt lat="44.9575433" lon="7.6323353"><ele>229.0</ele><time>2026-04-23T15:08:19.637Z</time></trkpt><trkpt lat="44.9577186" lon="7.6323467"><ele>229.0</ele><time>2026-04-23T15:08:20.637Z</time></trkpt><trkpt lat="44.9578917" lon="7.6323848"><ele>229.0</ele><time>2026-04-23T15:08:21.638Z</time></trkpt><trkpt lat="44.9580661" lon="7.6324583"><ele>229.0</ele><time>2026-04-23T15:08:22.637Z</time></trkpt><trkpt lat="44.9582216" lon="7.6325876"><ele>229.0</ele><time>2026-04-23T15:08:23.637Z</time></trkpt><trkpt lat="44.9583729" lon="7.6327291"><ele>229.0</ele><time>2026-04-23T15:08:24.637Z</time></trkpt><trkpt lat="44.9585021" lon="7.6328938"><ele>229.75</ele><time>2026-04-23T15:08:25.637Z</time></trkpt><trkpt lat="44.9585921" lon="7.6330607"><ele>230.5</ele><time>2026-04-23T15:08:26.637Z</time></trkpt><trkpt lat="44.9586527" lon="7.6332466"><ele>231.25</ele><time>2026-04-23T15:08:27.636Z</time></trkpt><trkpt lat="44.9587109" lon="7.6334433"><ele>232.0</ele><time>2026-04-23T15:08:28.637Z</time></trkpt><trkpt lat="44.9587668" lon="7.6336479"><ele>232.75</ele><time>2026-04-23T15:08:29.636Z</time></trkpt><trkpt lat="44.9588173" lon="7.63385"><ele>233.5</ele><time>2026-04-23T15:08:30.636Z</time></trkpt><trkpt lat="44.9588542" lon="7.6340463"><ele>234.25</ele><time>2026-04-23T15:08:31.637Z</time></trkpt><trkpt lat="44.9588723" lon="7.6342349"><ele>235.0</ele><time>2026-04-23T15:08:32.637Z</time></trkpt><trkpt lat="44.9589054" lon="7.6343987"><ele>234.25</ele><time>2026-04-23T15:08:33.638Z</time></trkpt><trkpt lat="44.9589714" lon="7.6345307"><ele>233.5</ele><time>2026-04-23T15:08:34.638Z</time></trkpt><trkpt lat="44.9590631" lon="7.6346405"><ele>232.75</ele><time>2026-04-23T15:08:35.637Z</time></trkpt><trkpt lat="44.9591607" lon="7.6347395"><ele>232.0</ele><time>2026-04-23T15:08:36.637Z</time></trkpt><trkpt lat="44.9592567" lon="7.6348365"><ele>232.0</ele><time>2026-04-23T15:08:37.636Z</time></trkpt><trkpt lat="44.9593549" lon="7.6349307"><ele>232.0</ele><time>2026-04-23T15:08:38.637Z</time></trkpt><trkpt lat="44.95945" lon="7.6350253"><ele>232.0</ele><time>2026-04-23T15:08:39.638Z</time></trkpt><trkpt lat="44.9595463" lon="7.6351173"><ele>232.0</ele><time>2026-04-23T15:08:40.636Z</time></trkpt><trkpt lat="44.9596428" lon="7.6352117"><ele>231.5</ele><time>2026-04-23T15:08:41.638Z</time></trkpt><trkpt lat="44.9597474" lon="7.6353127"><ele>231.0</ele><time>2026-04-23T15:08:42.636Z</time></trkpt><trkpt lat="44.95985" lon="7.6354128"><ele>230.5</ele><time>2026-04-23T15:08:43.637Z</time></trkpt><trkpt lat="44.9599532" lon="7.6355334"><ele>230.0</ele><time>2026-04-23T15:08:44.636Z</time></trkpt><trkpt lat="44.9600516" lon="7.6356524"><ele>229.5</ele><time>2026-04-23T15:08:45.636Z</time></trkpt><trkpt lat="44.9601395" lon="7.6357788"><ele>229.0</ele><time>2026-04-23T15:08:46.639Z</time></trkpt><trkpt lat="44.9602199" lon="7.6359176"><ele>228.5</ele><time>2026-04-23T15:08:47.636Z</time></trkpt><trkpt lat="44.9602966" lon="7.6360738"><ele>228.0</ele><time>2026-04-23T15:08:48.637Z</time></trkpt><trkpt lat="44.9603706" lon="7.6362358"><ele>227.75</ele><time>2026-04-23T15:08:49.636Z</time></trkpt><trkpt lat="44.9604396" lon="7.6364066"><ele>227.5</ele><time>2026-04-23T15:08:50.636Z</time></trkpt><trkpt lat="44.9605031" lon="7.6365791"><ele>227.25</ele><time>2026-04-23T15:08:51.637Z</time></trkpt><trkpt lat="44.9605616" lon="7.6367447"><ele>227.0</ele><time>2026-04-23T15:08:52.638Z</time></trkpt><trkpt lat="44.9606213" lon="7.6368985"><ele>227.2</ele><time>2026-04-23T15:08:53.637Z</time></trkpt><trkpt lat="44.9606794" lon="7.6370361"><ele>227.39999999999998</ele><time>2026-04-23T15:08:54.637Z</time></trkpt><trkpt lat="44.960737" lon="7.6371548"><ele>227.60000000000002</ele><time>2026-04-23T15:08:55.638Z</time></trkpt><trkpt lat="44.9607861" lon="7.6372554"><ele>227.8</ele><time>2026-04-23T15:08:56.637Z</time></trkpt><trkpt lat="44.9608297" lon="7.6373639"><ele>228.0</ele><time>2026-04-23T15:08:57.637Z</time></trkpt><trkpt lat="44.9608668" lon="7.6374973"><ele>228.0</ele><time>2026-04-23T15:08:58.636Z</time></trkpt><trkpt lat="44.9608984" lon="7.6376584"><ele>228.0</ele><time>2026-04-23T15:08:59.636Z</time></trkpt><trkpt lat="44.9609208" lon="7.637828"><ele>228.0</ele><time>2026-04-23T15:09:00.637Z</time></trkpt><trkpt lat="44.9609434" lon="7.6380091"><ele>228.0</ele><time>2026-04-23T15:09:01.638Z</time></trkpt><trkpt lat="44.960968" lon="7.6382025"><ele>228.5</ele><time>2026-04-23T15:09:02.636Z</time></trkpt><trkpt lat="44.9609879" lon="7.6383939"><ele>229.0</ele><time>2026-04-23T15:09:03.637Z</time></trkpt><trkpt lat="44.9610071" lon="7.6385799"><ele>229.5</ele><time>2026-04-23T15:09:04.638Z</time></trkpt><trkpt lat="44.9610188" lon="7.6387729"><ele>230.0</ele><time>2026-04-23T15:09:05.637Z</time></trkpt><trkpt lat="44.9610095" lon="7.6389805"><ele>230.0</ele><time>2026-04-23T15:09:06.636Z</time></trkpt><trkpt lat="44.9609863" lon="7.6391963"><ele>230.0</ele><time>2026-04-23T15:09:07.637Z</time></trkpt><trkpt lat="44.9609606" lon="7.639418"><ele>230.0</ele><time>2026-04-23T15:09:08.639Z</time></trkpt><trkpt lat="44.9609337" lon="7.6396373"><ele>230.0</ele><time>2026-04-23T15:09:09.636Z</time></trkpt><trkpt lat="44.9609123" lon="7.6398389"><ele>230.0</ele><time>2026-04-23T15:09:10.638Z</time></trkpt><trkpt lat="44.9608943" lon="7.6400343"><ele>230.0</ele><time>2026-04-23T15:09:11.637Z</time></trkpt><trkpt lat="44.9608802" lon="7.6402232"><ele>230.0</ele><time>2026-04-23T15:09:12.637Z</time></trkpt><trkpt lat="44.9608621" lon="7.6403998"><ele>229.0</ele><time>2026-04-23T15:09:13.637Z</time></trkpt><trkpt lat="44.9608328" lon="7.6405726"><ele>228.0</ele><time>2026-04-23T15:09:14.636Z</time></trkpt><trkpt lat="44.9607897" lon="7.640732"><ele>227.0</ele><time>2026-04-23T15:09:15.636Z</time></trkpt><trkpt lat="44.9607287" lon="7.6408708"><ele>226.0</ele><time>2026-04-23T15:09:16.636Z</time></trkpt><trkpt lat="44.9606692" lon="7.6409915"><ele>226.0</ele><time>2026-04-23T15:09:17.637Z</time></trkpt><trkpt lat="44.960641" lon="7.6411206"><ele>226.00000000000003</ele><time>2026-04-23T15:09:18.637Z</time></trkpt><trkpt lat="44.9606549" lon="7.6412472"><ele>226.00000000000003</ele><time>2026-04-23T15:09:19.638Z</time></trkpt><trkpt lat="44.96071" lon="7.6413837"><ele>226.0</ele><time>2026-04-23T15:09:20.636Z</time></trkpt><trkpt lat="44.9608033" lon="7.6415401"><ele>226.0</ele><time>2026-04-23T15:09:21.636Z</time></trkpt><trkpt lat="44.9609131" lon="7.6417147"><ele>226.0</ele><time>2026-04-23T15:09:22.636Z</time></trkpt><trkpt lat="44.9610256" lon="7.6418988"><ele>226.0</ele><time>2026-04-23T15:09:23.636Z</time></trkpt><trkpt lat="44.9611325" lon="7.6420722"><ele>226.0</ele><time>2026-04-23T15:09:24.638Z</time></trkpt><trkpt lat="44.9612418" lon="7.6422346"><ele>226.0</ele><time>2026-04-23T15:09:25.637Z</time></trkpt><trkpt lat="44.9613435" lon="7.6423776"><ele>226.0</ele><time>2026-04-23T15:09:26.637Z</time></trkpt><trkpt lat="44.9614488" lon="7.6425049"><ele>226.0</ele><time>2026-04-23T15:09:27.637Z</time></trkpt><trkpt lat="44.9615525" lon="7.6426181"><ele>226.0</ele><time>2026-04-23T15:09:28.637Z</time></trkpt><trkpt lat="44.9616552" lon="7.6427256"><ele>226.20000000000002</ele><time>2026-04-23T15:09:29.637Z</time></trkpt><trkpt lat="44.9617498" lon="7.6428195"><ele>226.40000000000003</ele><time>2026-04-23T15:09:30.637Z</time></trkpt><trkpt lat="44.9618445" lon="7.642909"><ele>226.6</ele><time>2026-04-23T15:09:31.638Z</time></trkpt><trkpt lat="44.9619373" lon="7.642986"><ele>226.8</ele><time>2026-04-23T15:09:32.638Z</time></trkpt><trkpt lat="44.9620291" lon="7.6430535"><ele>227.0</ele><time>2026-04-23T15:09:33.637Z</time></trkpt><trkpt lat="44.9621214" lon="7.6431172"><ele>227.0</ele><time>2026-04-23T15:09:34.637Z</time></trkpt><trkpt lat="44.9622162" lon="7.6431718"><ele>227.0</ele><time>2026-04-23T15:09:35.637Z</time></trkpt><trkpt lat="44.9623105" lon="7.6432299"><ele>227.0</ele><time>2026-04-23T15:09:36.637Z</time></trkpt><trkpt lat="44.9624019" lon="7.6432935"><ele>227.0</ele><time>2026-04-23T15:09:37.638Z</time></trkpt><trkpt lat="44.9624891" lon="7.643357"><ele>227.0</ele><time>2026-04-23T15:09:38.637Z</time></trkpt><trkpt lat="44.9625722" lon="7.643431"><ele>226.39999999999998</ele><time>2026-04-23T15:09:39.638Z</time></trkpt><trkpt lat="44.9626575" lon="7.6435164"><ele>225.79999999999998</ele><time>2026-04-23T15:09:40.637Z</time></trkpt><trkpt lat="44.9627442" lon="7.6436119"><ele>225.2</ele><time>2026-04-23T15:09:41.638Z</time></trkpt><trkpt lat="44.9628361" lon="7.6437016"><ele>224.6</ele><time>2026-04-23T15:09:42.638Z</time></trkpt><trkpt lat="44.9629317" lon="7.6437933"><ele>224.0</ele><time>2026-04-23T15:09:43.636Z</time></trkpt><trkpt lat="44.9630309" lon="7.6438632"><ele>224.0</ele><time>2026-04-23T15:09:44.637Z</time></trkpt><trkpt lat="44.9631352" lon="7.6439162"><ele>224.0</ele><time>2026-04-23T15:09:45.637Z</time></trkpt><trkpt lat="44.963243" lon="7.6439625"><ele>224.0</ele><time>2026-04-23T15:09:46.636Z</time></trkpt><trkpt lat="44.9633542" lon="7.6440041"><ele>224.0</ele><time>2026-04-23T15:09:47.637Z</time></trkpt><trkpt lat="44.9634676" lon="7.6440416"><ele>225.25</ele><time>2026-04-23T15:09:48.636Z</time></trkpt><trkpt lat="44.9635781" lon="7.6440851"><ele>226.5</ele><time>2026-04-23T15:09:49.637Z</time></trkpt><trkpt lat="44.963688" lon="7.6441303"><ele>227.75</ele><time>2026-04-23T15:09:50.637Z</time></trkpt><trkpt lat="44.9637924" lon="7.6441846"><ele>229.0</ele><time>2026-04-23T15:09:51.637Z</time></trkpt><trkpt lat="44.9638866" lon="7.6442626"><ele>229.0</ele><time>2026-04-23T15:09:52.636Z</time></trkpt><trkpt lat="44.9639589" lon="7.6443699"><ele>229.0</ele><time>2026-04-23T15:09:53.638Z</time></trkpt><trkpt lat="44.9640149" lon="7.6445049"><ele>229.0</ele><time>2026-04-23T15:09:54.636Z</time></trkpt><trkpt lat="44.9640751" lon="7.644652"><ele>229.0</ele><time>2026-04-23T15:09:55.638Z</time></trkpt><trkpt lat="44.9641364" lon="7.6447913"><ele>229.0</ele><time>2026-04-23T15:09:56.637Z</time></trkpt><trkpt lat="44.9641979" lon="7.6449234"><ele>228.99999999999997</ele><time>2026-04-23T15:09:57.636Z</time></trkpt><trkpt lat="44.964263" lon="7.6450453"><ele>228.99999999999997</ele><time>2026-04-23T15:09:58.636Z</time></trkpt><trkpt lat="44.9643344" lon="7.6451562"><ele>229.0</ele><time>2026-04-23T15:09:59.637Z</time></trkpt><trkpt lat="44.9644227" lon="7.6452435"><ele>229.0</ele><time>2026-04-23T15:10:00.636Z</time></trkpt><trkpt lat="44.9645243" lon="7.6453131"><ele>229.0</ele><time>2026-04-23T15:10:01.638Z</time></trkpt><trkpt lat="44.9646247" lon="7.6453805"><ele>228.99999999999997</ele><time>2026-04-23T15:10:02.637Z</time></trkpt><trkpt lat="44.964727" lon="7.6454452"><ele>228.99999999999997</ele><time>2026-04-23T15:10:03.637Z</time></trkpt><trkpt lat="44.964824" lon="7.6455043"><ele>229.0</ele><time>2026-04-23T15:10:04.637Z</time></trkpt><trkpt lat="44.9649209" lon="7.6455699"><ele>229.0</ele><time>2026-04-23T15:10:05.637Z</time></trkpt><trkpt lat="44.965013" lon="7.6456258"><ele>229.6</ele><time>2026-04-23T15:10:06.636Z</time></trkpt><trkpt lat="44.9651027" lon="7.6456885"><ele>230.2</ele><time>2026-04-23T15:10:07.638Z</time></trkpt><trkpt lat="44.9651824" lon="7.6457721"><ele>230.79999999999998</ele><time>2026-04-23T15:10:08.637Z</time></trkpt><trkpt lat="44.9652489" lon="7.6458818"><ele>231.39999999999998</ele><time>2026-04-23T15:10:09.637Z</time></trkpt><trkpt lat="44.9652859" lon="7.6460119"><ele>232.0</ele><time>2026-04-23T15:10:10.636Z</time></trkpt><trkpt lat="44.9653025" lon="7.6461553"><ele>232.2</ele><time>2026-04-23T15:10:11.636Z</time></trkpt><trkpt lat="44.9653003" lon="7.6463004"><ele>232.39999999999998</ele><time>2026-04-23T15:10:12.637Z</time></trkpt><trkpt lat="44.9653022" lon="7.6464403"><ele>232.60000000000002</ele><time>2026-04-23T15:10:13.637Z</time></trkpt><trkpt lat="44.9652997" lon="7.6465692"><ele>232.8</ele><time>2026-04-23T15:10:14.639Z</time></trkpt><trkpt lat="44.9653051" lon="7.6467121"><ele>233.0</ele><time>2026-04-23T15:10:15.637Z</time></trkpt><trkpt lat="44.9653211" lon="7.6468546"><ele>232.75</ele><time>2026-04-23T15:10:16.636Z</time></trkpt><trkpt lat="44.9653377" lon="7.6469982"><ele>232.5</ele><time>2026-04-23T15:10:17.636Z</time></trkpt><trkpt lat="44.9653603" lon="7.6471518"><ele>232.25</ele><time>2026-04-23T15:10:18.637Z</time></trkpt><trkpt lat="44.9653857" lon="7.6473189"><ele>232.0</ele><time>2026-04-23T15:10:19.637Z</time></trkpt><trkpt lat="44.9654121" lon="7.6474871"><ele>232.0</ele><time>2026-04-23T15:10:20.637Z</time></trkpt><trkpt lat="44.9654393" lon="7.6476723"><ele>232.0</ele><time>2026-04-23T15:10:21.637Z</time></trkpt><trkpt lat="44.9654655" lon="7.647861"><ele>232.0</ele><time>2026-04-23T15:10:22.636Z</time></trkpt><trkpt lat="44.9654845" lon="7.6480589"><ele>232.0</ele><time>2026-04-23T15:10:23.638Z</time></trkpt><trkpt lat="44.9654948" lon="7.6482481"><ele>231.0</ele><time>2026-04-23T15:10:24.636Z</time></trkpt><trkpt lat="44.9654973" lon="7.6484416"><ele>230.0</ele><time>2026-04-23T15:10:25.637Z</time></trkpt><trkpt lat="44.9654925" lon="7.648639"><ele>229.0</ele><time>2026-04-23T15:10:26.637Z</time></trkpt><trkpt lat="44.9654814" lon="7.6488343"><ele>228.0</ele><time>2026-04-23T15:10:27.636Z</time></trkpt><trkpt lat="44.9654707" lon="7.6490173"><ele>228.0</ele><time>2026-04-23T15:10:28.637Z</time></trkpt><trkpt lat="44.9654644" lon="7.6492004"><ele>228.0</ele><time>2026-04-23T15:10:29.636Z</time></trkpt><trkpt lat="44.9654663" lon="7.6493813"><ele>228.0</ele><time>2026-04-23T15:10:30.636Z</time></trkpt><trkpt lat="44.9654798" lon="7.6495551"><ele>228.0</ele><time>2026-04-23T15:10:31.636Z</time></trkpt><trkpt lat="44.9655092" lon="7.649729"><ele>227.66666666666669</ele><time>2026-04-23T15:10:32.637Z</time></trkpt><trkpt lat="44.9655696" lon="7.6499059"><ele>227.33333333333334</ele><time>2026-04-23T15:10:33.636Z</time></trkpt><trkpt lat="44.9656498" lon="7.6500939"><ele>227.0</ele><time>2026-04-23T15:10:34.636Z</time></trkpt><trkpt lat="44.9657378" lon="7.650281"><ele>226.66666666666669</ele><time>2026-04-23T15:10:35.636Z</time></trkpt><trkpt lat="44.9658505" lon="7.6504945"><ele>226.33333333333331</ele><time>2026-04-23T15:10:36.636Z</time></trkpt><trkpt lat="44.9659406" lon="7.6507089"><ele>226.0</ele><time>2026-04-23T15:10:37.637Z</time></trkpt><trkpt lat="44.9660165" lon="7.6509219"><ele>226.0</ele><time>2026-04-23T15:10:38.637Z</time></trkpt><trkpt lat="44.9660897" lon="7.6511366"><ele>226.0</ele><time>2026-04-23T15:10:39.636Z</time></trkpt><trkpt lat="44.9661621" lon="7.6513367"><ele>226.0</ele><time>2026-04-23T15:10:40.636Z</time></trkpt><trkpt lat="44.9662281" lon="7.6515194"><ele>226.0</ele><time>2026-04-23T15:10:41.636Z</time></trkpt><trkpt lat="44.9662899" lon="7.6516872"><ele>226.0</ele><time>2026-04-23T15:10:42.637Z</time></trkpt><trkpt lat="44.9663543" lon="7.6518415"><ele>226.0</ele><time>2026-04-23T15:10:43.636Z</time></trkpt><trkpt lat="44.9664235" lon="7.6519782"><ele>226.0</ele><time>2026-04-23T15:10:44.637Z</time></trkpt><trkpt lat="44.9665044" lon="7.6520952"><ele>225.75</ele><time>2026-04-23T15:10:45.637Z</time></trkpt><trkpt lat="44.9665922" lon="7.6521816"><ele>225.5</ele><time>2026-04-23T15:10:46.637Z</time></trkpt><trkpt lat="44.9667092" lon="7.6522532"><ele>225.25</ele><time>2026-04-23T15:10:47.637Z</time></trkpt><trkpt lat="44.9668182" lon="7.6523282"><ele>225.0</ele><time>2026-04-23T15:10:48.636Z</time></trkpt><trkpt lat="44.9669337" lon="7.652395"><ele>224.75</ele><time>2026-04-23T15:10:49.637Z</time></trkpt><trkpt lat="44.9670485" lon="7.6524661"><ele>224.5</ele><time>2026-04-23T15:10:50.636Z</time></trkpt><trkpt lat="44.9671594" lon="7.6525328"><ele>224.25</ele><time>2026-04-23T15:10:51.636Z</time></trkpt><trkpt lat="44.9672601" lon="7.6526129"><ele>224.0</ele><time>2026-04-23T15:10:52.637Z</time></trkpt><trkpt lat="44.9673583" lon="7.652702"><ele>224.0</ele><time>2026-04-23T15:10:53.636Z</time></trkpt><trkpt lat="44.9674502" lon="7.6528066"><ele>223.99999999999997</ele><time>2026-04-23T15:10:54.635Z</time></trkpt><trkpt lat="44.9675327" lon="7.6529116"><ele>223.99999999999997</ele><time>2026-04-23T15:10:55.636Z</time></trkpt><trkpt lat="44.9676125" lon="7.6530184"><ele>224.0</ele><time>2026-04-23T15:10:56.636Z</time></trkpt><trkpt lat="44.9676897" lon="7.6531239"><ele>224.0</ele><time>2026-04-23T15:10:57.636Z</time></trkpt><trkpt lat="44.9677725" lon="7.6532373"><ele>224.25</ele><time>2026-04-23T15:10:58.637Z</time></trkpt><trkpt lat="44.9678566" lon="7.653357"><ele>224.5</ele><time>2026-04-23T15:10:59.636Z</time></trkpt><trkpt lat="44.9679418" lon="7.6534723"><ele>224.75</ele><time>2026-04-23T15:11:00.636Z</time></trkpt><trkpt lat="44.9680238" lon="7.6535848"><ele>225.0</ele><time>2026-04-23T15:11:01.636Z</time></trkpt><trkpt lat="44.9681052" lon="7.6536964"><ele>225.16666666666666</ele><time>2026-04-23T15:11:02.636Z</time></trkpt><trkpt lat="44.9681861" lon="7.6538023"><ele>225.33333333333331</ele><time>2026-04-23T15:11:03.635Z</time></trkpt><trkpt lat="44.9682597" lon="7.6539011"><ele>225.5</ele><time>2026-04-23T15:11:04.636Z</time></trkpt><trkpt lat="44.9683233" lon="7.6539862"><ele>225.66666666666666</ele><time>2026-04-23T15:11:05.636Z</time></trkpt><trkpt lat="44.9683741" lon="7.654056"><ele>225.83333333333331</ele><time>2026-04-23T15:11:06.636Z</time></trkpt><trkpt lat="44.9684231" lon="7.6541132"><ele>226.0</ele><time>2026-04-23T15:11:07.636Z</time></trkpt><trkpt lat="44.9684502" lon="7.6541947"><ele>225.99999999999997</ele><time>2026-04-23T15:11:09.638Z</time></trkpt><trkpt lat="44.9684165" lon="7.6543034"><ele>226.0</ele><time>2026-04-23T15:11:11.637Z</time></trkpt><trkpt lat="44.9683464" lon="7.6544177"><ele>226.0</ele><time>2026-04-23T15:11:13.635Z</time></trkpt><trkpt lat="44.9682983" lon="7.6544844"><ele>226.0</ele><time>2026-04-23T15:11:14.637Z</time></trkpt><trkpt lat="44.9682432" lon="7.6545546"><ele>225.99999999999997</ele><time>2026-04-23T15:11:15.636Z</time></trkpt><trkpt lat="44.9681854" lon="7.6546245"><ele>226.0</ele><time>2026-04-23T15:11:16.636Z</time></trkpt><trkpt lat="44.9681238" lon="7.6546901"><ele>225.71428571428572</ele><time>2026-04-23T15:11:17.637Z</time></trkpt><trkpt lat="44.9680632" lon="7.6547576"><ele>225.42857142857142</ele><time>2026-04-23T15:11:18.637Z</time></trkpt><trkpt lat="44.9680075" lon="7.6548239"><ele>225.14285714285714</ele><time>2026-04-23T15:11:19.637Z</time></trkpt><trkpt lat="44.9679591" lon="7.65489"><ele>224.85714285714286</ele><time>2026-04-23T15:11:20.636Z</time></trkpt><trkpt lat="44.9679125" lon="7.6549579"><ele>224.57142857142856</ele><time>2026-04-23T15:11:21.636Z</time></trkpt><trkpt lat="44.9678715" lon="7.6550273"><ele>224.28571428571428</ele><time>2026-04-23T15:11:22.637Z</time></trkpt><trkpt lat="44.9678375" lon="7.6551022"><ele>224.0</ele><time>2026-04-23T15:11:23.637Z</time></trkpt><trkpt lat="44.9678147" lon="7.6552605"><ele>224.0</ele><time>2026-04-23T15:11:25.636Z</time></trkpt><trkpt lat="44.9678312" lon="7.6554392"><ele>223.99999999999997</ele><time>2026-04-23T15:11:27.637Z</time></trkpt><trkpt lat="44.9678467" lon="7.6555299"><ele>223.99999999999997</ele><time>2026-04-23T15:11:28.637Z</time></trkpt><trkpt lat="44.9678642" lon="7.6556183"><ele>224.0</ele><time>2026-04-23T15:11:29.636Z</time></trkpt><trkpt lat="44.9678994" lon="7.6557976"><ele>224.0</ele><time>2026-04-23T15:11:31.635Z</time></trkpt><trkpt lat="44.9679172" lon="7.6558912"><ele>224.00000000000003</ele><time>2026-04-23T15:11:32.638Z</time></trkpt><trkpt lat="44.9679303" lon="7.655979"><ele>224.0</ele><time>2026-04-23T15:11:33.637Z</time></trkpt><trkpt lat="44.9679409" lon="7.6560719"><ele>224.0</ele><time>2026-04-23T15:11:34.635Z</time></trkpt><trkpt lat="44.9679657" lon="7.6562373"><ele>224.0</ele><time>2026-04-23T15:11:36.636Z</time></trkpt><trkpt lat="44.9679804" lon="7.6563867"><ele>224.00000000000003</ele><time>2026-04-23T15:11:38.636Z</time></trkpt><trkpt lat="44.967984" lon="7.6564943"><ele>224.0</ele><time>2026-04-23T15:11:40.637Z</time></trkpt><trkpt lat="44.9679829" lon="7.6565847"><ele>224.0</ele><time>2026-04-23T15:11:43.635Z</time></trkpt><trkpt lat="44.9679807" lon="7.6566926"><ele>223.99999999999997</ele><time>2026-04-23T15:11:47.637Z</time></trkpt><trkpt lat="44.9679656" lon="7.6568303"><ele>223.99999999999997</ele><time>2026-04-23T15:11:50.636Z</time></trkpt><trkpt lat="44.9679028" lon="7.6569456"><ele>224.0</ele><time>2026-04-23T15:11:52.635Z</time></trkpt><trkpt lat="44.9678321" lon="7.6570725"><ele>224.0</ele><time>2026-04-23T15:11:54.636Z</time></trkpt><trkpt lat="44.9677864" lon="7.6571471"><ele>224.16666666666669</ele><time>2026-04-23T15:11:55.638Z</time></trkpt><trkpt lat="44.9677482" lon="7.6572198"><ele>224.33333333333334</ele><time>2026-04-23T15:11:56.635Z</time></trkpt><trkpt lat="44.9677066" lon="7.6572933"><ele>224.5</ele><time>2026-04-23T15:11:57.636Z</time></trkpt><trkpt lat="44.9676628" lon="7.6573621"><ele>224.66666666666669</ele><time>2026-04-23T15:11:58.635Z</time></trkpt><trkpt lat="44.9675881" lon="7.6574981"><ele>224.83333333333334</ele><time>2026-04-23T15:12:00.637Z</time></trkpt><trkpt lat="44.967513" lon="7.6576315"><ele>225.0</ele><time>2026-04-23T15:12:02.636Z</time></trkpt><trkpt lat="44.9674411" lon="7.6577541"><ele>223.0</ele><time>2026-04-23T15:12:04.635Z</time></trkpt><trkpt lat="44.9673711" lon="7.6578686"><ele>223.0</ele><time>2026-04-23T15:12:06.638Z</time></trkpt><trkpt lat="44.9673301" lon="7.6579407"><ele>223.0</ele><time>2026-04-23T15:12:10.637Z</time></trkpt><trkpt lat="44.9673867" lon="7.6578758"><ele>223.0</ele><time>2026-04-23T15:12:57.636Z</time></trkpt></trkseg></trk></gpx>